Time,TemperatureF,DewpointF,PressureIn,WindDirection,WindDirectionDegrees,WindSpeedMPH,WindSpeedGustMPH,Humidity,HourlyPrecipIn,Conditions,Clouds,dailyrainin,SoftwareType,DateUTC
2013-11-08 00:00:00,43.9,39.0,29.96,WNW,302,1.0,7.0,83,0.00,,,0.27,meteohub,2013-11-08 05:00:00,
2013-11-08 00:01:00,43.9,39.0,29.96,WNW,301,2.0,7.0,83,0.00,,,0.27,meteohub,2013-11-08 05:01:00,
2013-11-08 00:02:00,43.9,38.7,29.96,WNW,292,0.0,7.0,82,0.00,,,0.27,meteohub,2013-11-08 05:02:00,
2013-11-08 00:06:00,43.9,38.7,29.96,WNW,290,0.0,5.0,82,0.00,,,0.00,meteohub,2013-11-08 05:06:00,
2013-11-08 00:07:00,43.9,38.7,29.96,WNW,290,0.0,5.0,82,0.00,,,0.00,meteohub,2013-11-08 05:07:00,
2013-11-08 00:08:00,43.9,38.7,29.96,WNW,290,1.0,5.0,82,0.00,,,0.00,meteohub,2013-11-08 05:08:00,
2013-11-08 00:10:00,44.1,38.8,29.96,West,281,2.0,5.0,82,0.00,,,0.00,meteohub,2013-11-08 05:10:00,
2013-11-08 00:11:00,44.1,38.8,29.96,WNW,284,1.0,5.0,82,0.00,,,0.00,meteohub,2013-11-08 05:11:00,
2013-11-08 00:12:00,44.1,38.8,29.96,WNW,286,0.0,5.0,82,0.00,,,0.00,meteohub,2013-11-08 05:12:00,
2013-11-08 00:13:00,44.1,38.8,29.96,WNW,289,3.0,5.0,82,0.00,,,0.00,meteohub,2013-11-08 05:13:00,
2013-11-08 00:14:00,44.1,38.8,29.96,WNW,292,2.0,5.0,82,0.00,,,0.00,meteohub,2013-11-08 05:14:00,
2013-11-08 00:15:00,44.1,38.7,29.96,WNW,292,2.0,5.0,81,0.00,,,0.00,meteohub,2013-11-08 05:15:00,
2013-11-08 00:16:00,44.1,38.7,29.96,WNW,296,1.0,4.0,81,0.00,,,0.00,meteohub,2013-11-08 05:16:00,
2013-11-08 00:17:00,44.1,38.7,29.96,WNW,296,1.0,4.0,81,0.00,,,0.00,meteohub,2013-11-08 05:17:00,
2013-11-08 00:18:00,44.1,38.7,29.96,WNW,296,0.0,4.0,81,0.00,,,0.00,meteohub,2013-11-08 05:18:00,
2013-11-08 00:19:00,44.1,38.7,29.96,WNW,297,1.0,4.0,81,0.00,,,0.00,meteohub,2013-11-08 05:19:00,
2013-11-08 00:20:00,44.2,38.8,29.96,WNW,297,2.0,4.0,81,0.00,,,0.00,meteohub,2013-11-08 05:20:00,
2013-11-08 00:22:00,44.2,38.8,29.96,WNW,292,1.0,4.0,81,0.00,,,0.00,meteohub,2013-11-08 05:22:00,
2013-11-08 00:23:00,44.2,38.8,29.96,WNW,296,3.0,4.0,81,0.00,,,0.00,meteohub,2013-11-08 05:23:00,
2013-11-08 00:24:00,44.2,38.8,29.96,WNW,296,0.0,4.0,81,0.00,,,0.00,meteohub,2013-11-08 05:24:00,
2013-11-08 00:25:00,44.2,38.8,29.96,WNW,296,1.0,4.0,81,0.00,,,0.00,meteohub,2013-11-08 05:25:00,
2013-11-08 00:27:00,44.2,38.8,29.96,NW,309,2.0,4.0,81,0.00,,,0.00,meteohub,2013-11-08 05:27:00,
2013-11-08 00:28:00,44.2,38.8,29.96,NW,309,0.0,4.0,81,0.00,,,0.00,meteohub,2013-11-08 05:28:00,
2013-11-08 00:29:00,44.2,38.8,29.96,NW,305,2.0,4.0,81,0.00,,,0.00,meteohub,2013-11-08 05:29:00,
2013-11-08 00:30:00,44.2,38.8,29.96,WNW,288,0.0,5.0,81,0.00,,,0.00,meteohub,2013-11-08 05:30:00,
2013-11-08 00:33:00,44.2,38.8,29.96,West,279,0.0,5.0,81,0.00,,,0.00,meteohub,2013-11-08 05:33:00,
2013-11-08 00:35:00,44.2,38.8,29.96,WNW,284,3.0,5.0,81,0.00,,,0.00,meteohub,2013-11-08 05:35:00,
2013-11-08 00:36:00,44.2,38.8,29.96,WNW,285,2.0,5.0,81,0.00,,,0.00,meteohub,2013-11-08 05:36:00,
2013-11-08 00:38:00,44.2,38.8,29.96,West,267,4.0,5.0,81,0.00,,,0.00,meteohub,2013-11-08 05:38:00,
2013-11-08 00:39:00,44.1,38.7,29.96,WNW,292,2.0,5.0,81,0.00,,,0.00,meteohub,2013-11-08 05:39:00,
2013-11-08 00:40:00,44.1,38.7,29.96,WNW,286,0.0,5.0,81,0.00,,,0.00,meteohub,2013-11-08 05:40:00,
2013-11-08 00:41:00,44.1,38.8,29.96,West,277,1.0,5.0,82,0.00,,,0.00,meteohub,2013-11-08 05:41:00,
2013-11-08 00:43:00,44.1,38.8,29.96,WNW,294,2.0,5.0,82,0.00,,,0.00,meteohub,2013-11-08 05:43:00,
2013-11-08 00:44:00,43.9,38.7,29.96,WNW,293,2.0,5.0,82,0.00,,,0.00,meteohub,2013-11-08 05:44:00,
2013-11-08 00:45:00,43.9,38.7,29.96,West,268,1.0,4.0,82,0.00,,,0.00,meteohub,2013-11-08 05:45:00,
2013-11-08 00:46:00,43.9,38.7,29.96,West,273,0.0,4.0,82,0.00,,,0.00,meteohub,2013-11-08 05:46:00,
2013-11-08 00:48:00,43.9,38.7,29.96,WNW,288,2.0,4.0,82,0.00,,,0.00,meteohub,2013-11-08 05:48:00,
2013-11-08 00:49:00,43.7,38.5,29.96,NW,304,3.0,4.0,82,0.00,,,0.00,meteohub,2013-11-08 05:49:00,
2013-11-08 00:50:00,43.7,38.5,29.96,NW,306,2.0,4.0,82,0.00,,,0.00,meteohub,2013-11-08 05:50:00,
2013-11-08 00:51:00,43.7,38.5,29.96,West,271,2.0,4.0,82,0.00,,,0.00,meteohub,2013-11-08 05:51:00,
2013-11-08 00:53:00,43.5,38.5,29.96,WNW,287,1.0,4.0,82,0.00,,,0.00,meteohub,2013-11-08 05:53:00,
2013-11-08 00:54:00,43.5,38.7,29.96,WNW,294,2.0,4.0,83,0.00,,,0.00,meteohub,2013-11-08 05:54:00,
2013-11-08 00:55:00,43.5,38.5,29.96,West,269,3.0,4.0,82,0.00,,,0.00,meteohub,2013-11-08 05:55:00,
2013-11-08 00:57:00,43.5,38.7,29.97,WNW,296,1.0,6.0,83,0.00,,,0.00,meteohub,2013-11-08 05:57:00,
2013-11-08 01:00:00,43.5,38.7,29.97,WNW,299,4.0,6.0,83,0.00,,,0.00,meteohub,2013-11-08 06:00:00,
2013-11-08 01:02:00,43.5,38.7,29.97,West,272,1.0,7.0,83,0.00,,,0.00,meteohub,2013-11-08 06:02:00,
2013-11-08 01:05:00,43.5,38.7,29.97,NW,307,5.0,7.0,83,0.00,,,0.00,meteohub,2013-11-08 06:05:00,
2013-11-08 01:06:00,43.5,38.7,29.97,WNW,291,4.0,7.0,83,0.00,,,0.00,meteohub,2013-11-08 06:06:00,
2013-11-08 01:07:00,43.5,39.0,29.97,WNW,288,1.0,7.0,84,0.00,,,0.00,meteohub,2013-11-08 06:07:00,
2013-11-08 01:08:00,43.5,39.0,29.96,WNW,288,2.0,7.0,84,0.00,,,0.00,meteohub,2013-11-08 06:08:00,
2013-11-08 01:10:00,43.5,39.0,29.96,WNW,290,3.0,7.0,84,0.00,,,0.00,meteohub,2013-11-08 06:10:00,
2013-11-08 01:11:00,43.5,39.0,29.96,WNW,290,2.0,7.0,84,0.00,,,0.00,meteohub,2013-11-08 06:11:00,
2013-11-08 01:12:00,43.7,39.2,29.96,WNW,294,0.0,7.0,84,0.00,,,0.00,meteohub,2013-11-08 06:12:00,
2013-11-08 01:14:00,43.7,39.2,29.96,WNW,295,3.0,7.0,84,0.00,,,0.00,meteohub,2013-11-08 06:14:00,
2013-11-08 01:16:00,43.9,39.4,29.97,WNW,300,4.0,7.0,84,0.00,,,0.00,meteohub,2013-11-08 06:16:00,
2013-11-08 01:17:00,43.9,39.4,29.97,WSW,257,0.0,7.0,84,0.00,,,0.00,meteohub,2013-11-08 06:17:00,
2013-11-08 01:20:00,43.9,39.4,29.97,WNW,282,1.0,9.0,84,0.00,,,0.00,meteohub,2013-11-08 06:20:00,
2013-11-08 01:21:00,44.1,39.2,29.97,WNW,285,2.0,9.0,83,0.00,,,0.00,meteohub,2013-11-08 06:21:00,
2013-11-08 01:22:00,44.1,39.2,29.97,West,277,4.0,9.0,83,0.00,,,0.00,meteohub,2013-11-08 06:22:00,
2013-11-08 01:23:00,44.1,39.2,29.97,WNW,291,3.0,9.0,83,0.00,,,0.00,meteohub,2013-11-08 06:23:00,
2013-11-08 01:25:00,44.1,39.2,29.97,SW,232,2.0,9.0,83,0.00,,,0.00,meteohub,2013-11-08 06:25:00,
2013-11-08 01:26:00,44.1,39.2,29.97,West,273,8.0,9.0,83,0.00,,,0.00,meteohub,2013-11-08 06:26:00,
2013-11-08 01:27:00,44.1,39.2,29.97,WNW,298,3.0,9.0,83,0.00,,,0.00,meteohub,2013-11-08 06:27:00,
2013-11-08 01:29:00,44.1,38.8,29.97,WNW,302,7.0,9.0,82,0.00,,,0.00,meteohub,2013-11-08 06:29:00,
2013-11-08 01:30:00,43.9,38.7,29.97,West,280,2.0,9.0,82,0.00,,,0.00,meteohub,2013-11-08 06:30:00,
2013-11-08 01:32:00,43.9,39.0,29.97,WNW,294,3.0,9.0,83,0.00,,,0.00,meteohub,2013-11-08 06:32:00,
2013-11-08 01:34:00,43.7,38.8,29.97,WSW,258,2.0,9.0,83,0.00,,,0.00,meteohub,2013-11-08 06:34:00,
2013-11-08 01:35:00,43.7,38.8,29.97,West,279,3.0,9.0,83,0.00,,,0.00,meteohub,2013-11-08 06:35:00,
2013-11-08 01:36:00,43.7,38.8,29.97,West,277,8.0,9.0,83,0.00,,,0.00,meteohub,2013-11-08 06:36:00,
2013-11-08 01:37:00,43.7,38.8,29.97,WNW,288,4.0,9.0,83,0.00,,,0.00,meteohub,2013-11-08 06:37:00,
2013-11-08 01:40:00,43.7,38.8,29.97,West,276,6.0,9.0,83,0.00,,,0.00,meteohub,2013-11-08 06:40:00,
2013-11-08 01:42:00,43.9,39.4,29.97,WNW,288,5.0,9.0,84,0.00,,,0.00,meteohub,2013-11-08 06:42:00,
2013-11-08 01:43:00,43.7,39.2,29.97,West,261,8.0,9.0,84,0.00,,,0.00,meteohub,2013-11-08 06:43:00,
2013-11-08 01:45:00,43.9,39.4,29.97,WNW,294,7.0,9.0,84,0.00,,,0.00,meteohub,2013-11-08 06:45:00,
2013-11-08 01:46:00,43.9,39.4,29.97,WNW,283,7.0,10.0,84,0.00,,,0.00,meteohub,2013-11-08 06:46:00,
2013-11-08 01:48:00,43.7,39.2,29.97,West,271,1.0,10.0,84,0.00,,,0.00,meteohub,2013-11-08 06:48:00,
2013-11-08 01:49:00,43.9,39.4,29.98,West,281,10.0,10.0,84,0.00,,,0.00,meteohub,2013-11-08 06:49:00,
2013-11-08 01:50:00,43.9,39.4,29.98,NNW,347,4.0,14.0,84,0.00,,,0.00,meteohub,2013-11-08 06:50:00,
2013-11-08 01:51:00,43.9,39.4,29.98,WNW,294,12.0,14.0,84,0.00,,,0.00,meteohub,2013-11-08 06:51:00,
2013-11-08 01:52:00,44.1,39.6,29.98,West,267,8.0,14.0,84,0.00,,,0.00,meteohub,2013-11-08 06:52:00,
2013-11-08 01:53:00,44.1,39.9,29.98,WNW,284,7.0,14.0,85,0.00,,,0.00,meteohub,2013-11-08 06:53:00,
2013-11-08 01:54:00,44.1,39.9,29.98,West,277,3.0,14.0,85,0.00,,,0.00,meteohub,2013-11-08 06:54:00,
2013-11-08 01:56:00,44.1,39.9,29.98,WNW,293,10.0,15.0,85,0.00,,,0.00,meteohub,2013-11-08 06:56:00,
2013-11-08 01:57:00,43.9,39.4,29.98,WNW,303,7.0,15.0,84,0.00,,,0.00,meteohub,2013-11-08 06:57:00,
2013-11-08 01:58:00,43.7,39.2,29.98,West,281,7.0,15.0,84,0.00,,,0.00,meteohub,2013-11-08 06:58:00,
2013-11-08 01:59:00,43.7,39.2,29.98,WNW,293,11.0,15.0,84,0.00,,,0.00,meteohub,2013-11-08 06:59:00,
2013-11-08 02:00:00,43.5,39.0,29.98,WNW,294,3.0,15.0,84,0.00,,,0.01,meteohub,2013-11-08 07:00:00,
2013-11-08 02:01:00,43.5,39.4,29.98,WNW,288,2.0,17.0,85,0.01,,,0.01,meteohub,2013-11-08 07:01:00,
2013-11-08 02:02:00,43.5,39.4,29.98,West,261,2.0,17.0,85,0.01,,,0.01,meteohub,2013-11-08 07:02:00,
2013-11-08 02:03:00,43.5,39.4,29.98,West,272,6.0,17.0,85,0.01,,,0.01,meteohub,2013-11-08 07:03:00,
2013-11-08 02:05:00,43.5,39.4,29.98,WNW,290,10.0,17.0,85,0.01,,,0.01,meteohub,2013-11-08 07:05:00,
2013-11-08 02:06:00,43.5,39.4,29.98,West,280,9.0,17.0,85,0.01,,,0.01,meteohub,2013-11-08 07:06:00,
2013-11-08 02:07:00,43.3,39.2,29.98,West,270,8.0,17.0,85,0.01,,,0.01,meteohub,2013-11-08 07:07:00,
2013-11-08 02:09:00,43.3,39.2,29.98,West,281,12.0,17.0,85,0.01,,,0.01,meteohub,2013-11-08 07:09:00,
2013-11-08 02:10:00,43.3,39.2,29.98,WNW,300,7.0,17.0,85,0.01,,,0.01,meteohub,2013-11-08 07:10:00,
2013-11-08 02:11:00,43.3,39.2,29.98,WNW,294,10.0,17.0,85,0.01,,,0.01,meteohub,2013-11-08 07:11:00,
2013-11-08 02:13:00,43.3,39.2,29.98,NW,315,3.0,17.0,85,0.01,,,0.01,meteohub,2013-11-08 07:13:00,
2013-11-08 02:14:00,43.3,39.2,29.98,WNW,282,2.0,17.0,85,0.01,,,0.01,meteohub,2013-11-08 07:14:00,
2013-11-08 02:15:00,43.3,39.2,29.98,West,267,11.0,17.0,85,0.01,,,0.01,meteohub,2013-11-08 07:15:00,
2013-11-08 02:16:00,43.2,39.0,29.98,West,280,6.0,14.0,85,0.01,,,0.01,meteohub,2013-11-08 07:16:00,
2013-11-08 02:18:00,43.2,39.0,29.98,NW,317,5.0,14.0,85,0.01,,,0.01,meteohub,2013-11-08 07:18:00,
2013-11-08 02:19:00,43.2,39.0,29.98,WNW,290,7.0,14.0,85,0.01,,,0.01,meteohub,2013-11-08 07:19:00,
2013-11-08 02:20:00,43.2,39.0,29.98,West,279,8.0,14.0,85,0.01,,,0.01,meteohub,2013-11-08 07:20:00,
2013-11-08 02:21:00,43.2,39.0,29.98,WNW,289,5.0,16.0,85,0.01,,,0.01,meteohub,2013-11-08 07:21:00,
2013-11-08 02:23:00,43.2,39.0,29.98,WNW,299,4.0,16.0,85,0.01,,,0.01,meteohub,2013-11-08 07:23:00,
2013-11-08 02:24:00,43.2,39.0,29.98,West,271,3.0,16.0,85,0.01,,,0.01,meteohub,2013-11-08 07:24:00,
2013-11-08 02:25:00,43.2,39.0,29.98,WNW,300,3.0,16.0,85,0.01,,,0.01,meteohub,2013-11-08 07:25:00,
2013-11-08 02:26:00,43.2,39.0,29.98,WNW,286,8.0,16.0,85,0.01,,,0.01,meteohub,2013-11-08 07:26:00,
2013-11-08 02:27:00,43.2,39.0,29.98,WNW,302,9.0,16.0,85,0.01,,,0.01,meteohub,2013-11-08 07:27:00,
2013-11-08 02:28:00,43.2,39.0,29.98,West,268,11.0,16.0,85,0.01,,,0.01,meteohub,2013-11-08 07:28:00,
2013-11-08 02:30:00,43.2,39.0,29.98,WNW,290,3.0,16.0,85,0.01,,,0.01,meteohub,2013-11-08 07:30:00,
2013-11-08 02:31:00,43.2,39.0,29.98,WNW,293,4.0,14.0,85,0.01,,,0.01,meteohub,2013-11-08 07:31:00,
2013-11-08 02:32:00,43.2,39.0,29.98,WNW,294,5.0,14.0,85,0.01,,,0.01,meteohub,2013-11-08 07:32:00,
2013-11-08 02:33:00,43.2,39.0,29.98,WNW,285,6.0,14.0,85,0.01,,,0.01,meteohub,2013-11-08 07:33:00,
2013-11-08 02:35:00,43.2,39.0,29.98,WNW,290,4.0,14.0,85,0.01,,,0.01,meteohub,2013-11-08 07:35:00,
2013-11-08 02:36:00,43.2,39.0,29.98,WNW,292,3.0,14.0,85,0.01,,,0.01,meteohub,2013-11-08 07:36:00,
2013-11-08 02:37:00,43.2,39.0,29.98,NW,306,9.0,14.0,85,0.01,,,0.01,meteohub,2013-11-08 07:37:00,
2013-11-08 02:38:00,43.2,39.0,29.98,WNW,284,3.0,14.0,85,0.01,,,0.01,meteohub,2013-11-08 07:38:00,
2013-11-08 02:39:00,43.2,39.0,29.98,West,269,10.0,14.0,85,0.01,,,0.01,meteohub,2013-11-08 07:39:00,
2013-11-08 02:41:00,43.3,39.2,29.98,WNW,288,9.0,14.0,85,0.01,,,0.01,meteohub,2013-11-08 07:41:00,
2013-11-08 02:42:00,43.3,39.2,29.98,WNW,301,11.0,14.0,85,0.01,,,0.01,meteohub,2013-11-08 07:42:00,
2013-11-08 02:43:00,43.3,39.2,29.98,West,260,4.0,14.0,85,0.01,,,0.01,meteohub,2013-11-08 07:43:00,
2013-11-08 02:44:00,43.3,39.2,29.98,West,259,7.0,14.0,85,0.01,,,0.01,meteohub,2013-11-08 07:44:00,
2013-11-08 02:46:00,43.3,39.2,29.98,West,275,8.0,16.0,85,0.01,,,0.01,meteohub,2013-11-08 07:46:00,
2013-11-08 02:47:00,43.3,39.2,29.98,WNW,298,7.0,16.0,85,0.01,,,0.01,meteohub,2013-11-08 07:47:00,
2013-11-08 02:48:00,43.3,39.2,29.98,NW,319,8.0,16.0,85,0.01,,,0.01,meteohub,2013-11-08 07:48:00,
2013-11-08 02:49:00,43.5,39.4,29.99,NNW,332,2.0,16.0,85,0.01,,,0.01,meteohub,2013-11-08 07:49:00,
2013-11-08 02:50:00,43.5,39.0,29.98,NW,304,9.0,16.0,84,0.01,,,0.01,meteohub,2013-11-08 07:50:00,
2013-11-08 02:51:00,43.5,39.0,29.98,WNW,293,9.0,16.0,84,0.01,,,0.01,meteohub,2013-11-08 07:51:00,
2013-11-08 02:52:00,43.5,39.0,29.98,WNW,297,10.0,16.0,84,0.01,,,0.01,meteohub,2013-11-08 07:52:00,
2013-11-08 02:53:00,43.5,39.0,29.98,WNW,289,11.0,16.0,84,0.01,,,0.01,meteohub,2013-11-08 07:53:00,
2013-11-08 02:54:00,43.5,39.0,29.98,WNW,290,8.0,16.0,84,0.01,,,0.01,meteohub,2013-11-08 07:54:00,
2013-11-08 02:55:00,43.5,38.7,29.98,WNW,298,3.0,16.0,83,0.01,,,0.01,meteohub,2013-11-08 07:55:00,
2013-11-08 02:57:00,43.7,38.8,29.98,WNW,286,2.0,16.0,83,0.01,,,0.01,meteohub,2013-11-08 07:57:00,
2013-11-08 02:58:00,43.7,38.8,29.98,WNW,296,7.0,16.0,83,0.01,,,0.01,meteohub,2013-11-08 07:58:00,
2013-11-08 03:00:00,43.7,38.8,29.98,NW,304,4.0,16.0,83,0.01,,,0.01,meteohub,2013-11-08 08:00:00,
2013-11-08 03:01:00,43.7,38.8,29.98,WNW,296,3.0,12.0,83,0.00,,,0.01,meteohub,2013-11-08 08:01:00,
2013-11-08 03:02:00,43.7,38.8,29.99,WNW,300,3.0,12.0,83,0.00,,,0.01,meteohub,2013-11-08 08:02:00,
2013-11-08 03:05:00,43.5,38.7,29.99,WNW,293,3.0,12.0,83,0.00,,,0.01,meteohub,2013-11-08 08:05:00,
2013-11-08 03:06:00,43.5,38.5,29.99,WSW,246,4.0,12.0,82,0.00,,,0.01,meteohub,2013-11-08 08:06:00,
2013-11-08 03:07:00,43.5,38.5,29.99,WNW,290,3.0,12.0,82,0.00,,,0.01,meteohub,2013-11-08 08:07:00,
2013-11-08 03:08:00,43.5,38.5,29.99,WNW,293,8.0,12.0,82,0.00,,,0.01,meteohub,2013-11-08 08:08:00,
2013-11-08 03:10:00,43.5,38.5,29.99,West,274,3.0,14.0,82,0.00,,,0.01,meteohub,2013-11-08 08:10:00,
2013-11-08 03:11:00,43.5,38.5,29.99,WNW,288,3.0,14.0,82,0.00,,,0.01,meteohub,2013-11-08 08:11:00,
2013-11-08 03:12:00,43.5,38.5,29.99,WNW,298,8.0,14.0,82,0.00,,,0.01,meteohub,2013-11-08 08:12:00,
2013-11-08 03:13:00,43.5,38.5,29.99,WNW,295,4.0,14.0,82,0.00,,,0.01,meteohub,2013-11-08 08:13:00,
2013-11-08 03:14:00,43.5,38.5,29.99,WNW,302,7.0,14.0,82,0.00,,,0.01,meteohub,2013-11-08 08:14:00,
2013-11-08 03:16:00,43.5,38.5,29.99,WNW,291,3.0,14.0,82,0.00,,,0.01,meteohub,2013-11-08 08:16:00,
2013-11-08 03:17:00,43.5,38.5,29.99,NW,304,9.0,14.0,82,0.00,,,0.01,meteohub,2013-11-08 08:17:00,
2013-11-08 03:19:00,43.5,38.5,29.99,West,281,7.0,14.0,82,0.00,,,0.01,meteohub,2013-11-08 08:19:00,
2013-11-08 03:20:00,43.5,38.1,29.99,WNW,288,5.0,14.0,81,0.00,,,0.01,meteohub,2013-11-08 08:20:00,
2013-11-08 03:21:00,43.5,38.1,29.99,WNW,286,2.0,14.0,81,0.00,,,0.01,meteohub,2013-11-08 08:21:00,
2013-11-08 03:22:00,43.5,38.1,29.99,WNW,291,3.0,14.0,81,0.00,,,0.01,meteohub,2013-11-08 08:22:00,
2013-11-08 03:24:00,43.7,38.3,29.99,WNW,300,4.0,14.0,81,0.00,,,0.01,meteohub,2013-11-08 08:24:00,
2013-11-08 03:25:00,43.5,38.1,29.99,WNW,294,4.0,11.0,81,0.00,,,0.01,meteohub,2013-11-08 08:25:00,
2013-11-08 03:27:00,43.5,38.1,29.99,WNW,284,4.0,11.0,81,0.00,,,0.01,meteohub,2013-11-08 08:27:00,
2013-11-08 03:28:00,43.5,38.1,29.99,WNW,293,2.0,11.0,81,0.00,,,0.01,meteohub,2013-11-08 08:28:00,
2013-11-08 03:30:00,43.5,38.1,29.99,WNW,294,4.0,12.0,81,0.00,,,0.01,meteohub,2013-11-08 08:30:00,
2013-11-08 03:31:00,43.5,38.1,29.99,WNW,289,2.0,12.0,81,0.00,,,0.01,meteohub,2013-11-08 08:31:00,
2013-11-08 03:32:00,43.5,37.8,29.99,WNW,287,1.0,12.0,80,0.00,,,0.01,meteohub,2013-11-08 08:32:00,
2013-11-08 03:33:00,43.5,37.8,29.99,WNW,284,4.0,12.0,80,0.00,,,0.01,meteohub,2013-11-08 08:33:00,
2013-11-08 03:34:00,43.5,37.8,29.99,WNW,296,7.0,12.0,80,0.00,,,0.01,meteohub,2013-11-08 08:34:00,
2013-11-08 03:35:00,43.5,37.4,29.99,WNW,285,11.0,12.0,79,0.00,,,0.01,meteohub,2013-11-08 08:35:00,
2013-11-08 03:36:00,43.3,37.2,29.99,West,281,3.0,12.0,79,0.00,,,0.01,meteohub,2013-11-08 08:36:00,
2013-11-08 03:37:00,43.3,37.2,29.99,WNW,292,8.0,12.0,79,0.00,,,0.01,meteohub,2013-11-08 08:37:00,
2013-11-08 03:39:00,43.5,37.4,29.99,WNW,284,4.0,12.0,79,0.00,,,0.01,meteohub,2013-11-08 08:39:00,
2013-11-08 03:40:00,43.5,37.4,29.99,West,281,3.0,12.0,79,0.00,,,0.01,meteohub,2013-11-08 08:40:00,
2013-11-08 03:41:00,43.5,37.0,29.99,NNW,327,3.0,12.0,78,0.00,,,0.01,meteohub,2013-11-08 08:41:00,
2013-11-08 03:42:00,43.5,37.0,29.99,West,269,7.0,12.0,78,0.00,,,0.01,meteohub,2013-11-08 08:42:00,
2013-11-08 03:44:00,43.3,36.9,29.99,WNW,292,5.0,12.0,78,0.00,,,0.01,meteohub,2013-11-08 08:44:00,
2013-11-08 03:45:00,43.3,36.9,29.99,WNW,296,3.0,12.0,78,0.00,,,0.01,meteohub,2013-11-08 08:45:00,
2013-11-08 03:46:00,43.5,37.0,29.99,WSW,257,5.0,11.0,78,0.00,,,0.01,meteohub,2013-11-08 08:46:00,
2013-11-08 03:47:00,43.5,37.0,29.99,West,275,6.0,11.0,78,0.00,,,0.01,meteohub,2013-11-08 08:47:00,
2013-11-08 03:49:00,43.5,37.4,29.99,WNW,296,3.0,11.0,79,0.00,,,0.01,meteohub,2013-11-08 08:49:00,
2013-11-08 03:50:00,43.5,37.4,29.99,West,275,2.0,11.0,79,0.00,,,0.01,meteohub,2013-11-08 08:50:00,
2013-11-08 03:51:00,43.5,37.4,29.99,WNW,292,3.0,11.0,79,0.00,,,0.01,meteohub,2013-11-08 08:51:00,
2013-11-08 03:52:00,43.3,37.2,30.00,WNW,284,3.0,11.0,79,0.00,,,0.01,meteohub,2013-11-08 08:52:00,
2013-11-08 03:53:00,43.3,37.2,30.00,WSW,257,3.0,11.0,79,0.00,,,0.01,meteohub,2013-11-08 08:53:00,
2013-11-08 03:54:00,43.3,37.6,30.00,WSW,257,2.0,11.0,80,0.00,,,0.01,meteohub,2013-11-08 08:54:00,
2013-11-08 03:55:00,43.2,37.4,30.00,WNW,300,2.0,10.0,80,0.00,,,0.01,meteohub,2013-11-08 08:55:00,
2013-11-08 03:56:00,43.2,37.4,30.00,West,266,1.0,10.0,80,0.00,,,0.01,meteohub,2013-11-08 08:56:00,
2013-11-08 03:59:00,43.2,37.4,30.00,WNW,295,3.0,10.0,80,0.00,,,0.01,meteohub,2013-11-08 08:59:00,
2013-11-08 04:00:00,43.2,37.8,30.00,WNW,292,3.0,10.0,81,0.00,,,0.01,meteohub,2013-11-08 09:00:00,
2013-11-08 04:01:00,43.2,37.8,30.00,WNW,298,1.0,10.0,81,0.00,,,0.01,meteohub,2013-11-08 09:01:00,
2013-11-08 04:03:00,43.0,37.6,30.00,WNW,289,2.0,10.0,81,0.00,,,0.01,meteohub,2013-11-08 09:03:00,
2013-11-08 04:04:00,43.0,37.6,30.00,WNW,300,2.0,10.0,81,0.00,,,0.01,meteohub,2013-11-08 09:04:00,
2013-11-08 04:05:00,43.0,37.9,30.00,WNW,292,2.0,9.0,82,0.00,,,0.01,meteohub,2013-11-08 09:05:00,
2013-11-08 04:06:00,43.0,37.9,30.00,West,278,2.0,9.0,82,0.00,,,0.01,meteohub,2013-11-08 09:06:00,
2013-11-08 04:08:00,42.6,37.6,30.01,WNW,288,3.0,9.0,82,0.00,,,0.01,meteohub,2013-11-08 09:08:00,
2013-11-08 04:10:00,42.6,37.6,30.01,WNW,288,7.0,9.0,82,0.00,,,0.01,meteohub,2013-11-08 09:10:00,
2013-11-08 04:11:00,42.4,37.0,30.01,West,281,3.0,7.0,81,0.00,,,0.01,meteohub,2013-11-08 09:11:00,
2013-11-08 04:14:00,42.4,37.0,30.01,West,263,6.0,7.0,81,0.00,,,0.01,meteohub,2013-11-08 09:14:00,
2013-11-08 04:15:00,42.3,36.9,30.01,West,268,3.0,7.0,81,0.00,,,0.01,meteohub,2013-11-08 09:15:00,
2013-11-08 04:16:00,42.3,36.9,30.01,West,281,2.0,9.0,81,0.00,,,0.01,meteohub,2013-11-08 09:16:00,
2013-11-08 04:17:00,42.3,36.9,30.01,NW,310,5.0,9.0,81,0.00,,,0.01,meteohub,2013-11-08 09:17:00,
2013-11-08 04:19:00,42.3,36.5,30.01,WNW,287,4.0,9.0,80,0.00,,,0.01,meteohub,2013-11-08 09:19:00,
2013-11-08 04:20:00,42.3,36.5,30.01,WNW,295,5.0,11.0,80,0.00,,,0.01,meteohub,2013-11-08 09:20:00,
2013-11-08 04:21:00,42.3,36.5,30.01,WNW,300,3.0,11.0,80,0.00,,,0.01,meteohub,2013-11-08 09:21:00,
2013-11-08 04:22:00,42.3,36.1,30.01,West,275,3.0,11.0,79,0.00,,,0.01,meteohub,2013-11-08 09:22:00,
2013-11-08 04:23:00,42.3,36.1,30.01,WNW,298,3.0,11.0,79,0.00,,,0.01,meteohub,2013-11-08 09:23:00,
2013-11-08 04:25:00,42.3,36.1,30.01,WNW,290,4.0,11.0,79,0.00,,,0.01,meteohub,2013-11-08 09:25:00,
2013-11-08 04:26:00,42.3,36.0,30.01,NW,305,8.0,11.0,78,0.00,,,0.01,meteohub,2013-11-08 09:26:00,
2013-11-08 04:27:00,42.3,36.0,30.01,WNW,292,1.0,11.0,78,0.00,,,0.01,meteohub,2013-11-08 09:27:00,
2013-11-08 04:28:00,42.3,36.0,30.01,WNW,286,4.0,11.0,78,0.00,,,0.01,meteohub,2013-11-08 09:28:00,
2013-11-08 04:29:00,42.3,36.0,30.01,WNW,284,2.0,11.0,78,0.00,,,0.01,meteohub,2013-11-08 09:29:00,
2013-11-08 04:31:00,42.3,36.0,30.01,West,272,6.0,11.0,78,0.00,,,0.01,meteohub,2013-11-08 09:31:00,
2013-11-08 04:32:00,42.3,36.0,30.01,WNW,295,4.0,11.0,78,0.00,,,0.01,meteohub,2013-11-08 09:32:00,
2013-11-08 04:33:00,42.3,36.0,30.01,WSW,253,4.0,11.0,78,0.00,,,0.01,meteohub,2013-11-08 09:33:00,
2013-11-08 04:34:00,42.3,36.0,30.01,WNW,286,2.0,11.0,78,0.00,,,0.01,meteohub,2013-11-08 09:34:00,
2013-11-08 04:37:00,42.3,35.6,30.01,West,278,3.0,9.0,77,0.00,,,0.01,meteohub,2013-11-08 09:37:00,
2013-11-08 04:38:00,42.3,35.6,30.01,WNW,284,3.0,9.0,77,0.00,,,0.01,meteohub,2013-11-08 09:38:00,
2013-11-08 04:40:00,42.3,36.0,30.01,WNW,294,4.0,8.0,78,0.00,,,0.01,meteohub,2013-11-08 09:40:00,
2013-11-08 04:42:00,42.1,35.8,30.01,WNW,293,5.0,8.0,78,0.00,,,0.01,meteohub,2013-11-08 09:42:00,
2013-11-08 04:43:00,42.1,35.8,30.01,West,279,3.0,8.0,78,0.00,,,0.01,meteohub,2013-11-08 09:43:00,
2013-11-08 04:45:00,42.1,35.8,30.01,West,279,3.0,8.0,78,0.00,,,0.01,meteohub,2013-11-08 09:45:00,
2013-11-08 04:47:00,41.9,35.6,30.01,WNW,288,2.0,8.0,78,0.00,,,0.01,meteohub,2013-11-08 09:47:00,
2013-11-08 04:48:00,41.9,35.6,30.01,NW,306,7.0,8.0,78,0.00,,,0.01,meteohub,2013-11-08 09:48:00,
2013-11-08 04:49:00,41.7,35.1,30.01,WNW,293,2.0,8.0,77,0.00,,,0.01,meteohub,2013-11-08 09:49:00,
2013-11-08 04:50:00,41.7,35.1,30.01,WNW,285,4.0,8.0,77,0.00,,,0.01,meteohub,2013-11-08 09:50:00,
2013-11-08 04:52:00,41.7,35.1,30.01,West,265,6.0,8.0,77,0.00,,,0.01,meteohub,2013-11-08 09:52:00,
2013-11-08 04:53:00,41.7,35.1,30.01,WNW,302,4.0,8.0,77,0.00,,,0.01,meteohub,2013-11-08 09:53:00,
2013-11-08 04:54:00,41.7,35.1,30.01,West,274,3.0,8.0,77,0.00,,,0.01,meteohub,2013-11-08 09:54:00,
2013-11-08 04:56:00,41.7,35.1,30.02,West,271,4.0,8.0,77,0.00,,,0.01,meteohub,2013-11-08 09:56:00,
2013-11-08 04:57:00,41.7,35.1,30.02,WNW,283,6.0,8.0,77,0.00,,,0.01,meteohub,2013-11-08 09:57:00,
2013-11-08 04:58:00,41.7,35.1,30.02,WNW,288,2.0,8.0,77,0.00,,,0.01,meteohub,2013-11-08 09:58:00,
2013-11-08 04:59:00,41.7,35.1,30.02,WNW,290,8.0,8.0,77,0.00,,,0.01,meteohub,2013-11-08 09:59:00,
2013-11-08 05:02:00,41.5,34.5,30.02,West,272,4.0,11.0,76,0.00,,,0.01,meteohub,2013-11-08 10:02:00,
2013-11-08 05:03:00,41.5,34.5,30.02,North,5,5.0,11.0,76,0.00,,,0.01,meteohub,2013-11-08 10:03:00,
2013-11-08 05:04:00,41.5,34.5,30.02,WNW,293,5.0,11.0,76,0.00,,,0.01,meteohub,2013-11-08 10:04:00,
2013-11-08 05:05:00,41.5,34.5,30.02,West,280,4.0,11.0,76,0.00,,,0.01,meteohub,2013-11-08 10:05:00,
2013-11-08 05:07:00,41.4,34.3,30.02,WNW,296,11.0,12.0,76,0.00,,,0.01,meteohub,2013-11-08 10:07:00,
2013-11-08 05:08:00,41.4,34.3,30.02,West,273,4.0,12.0,76,0.00,,,0.01,meteohub,2013-11-08 10:08:00,
2013-11-08 05:09:00,41.2,33.8,30.02,WNW,282,7.0,12.0,75,0.00,,,0.01,meteohub,2013-11-08 10:09:00,
2013-11-08 05:10:00,41.2,33.8,30.02,WNW,292,4.0,12.0,75,0.00,,,0.01,meteohub,2013-11-08 10:10:00,
2013-11-08 05:11:00,41.2,33.8,30.02,NNW,329,6.0,12.0,75,0.00,,,0.01,meteohub,2013-11-08 10:11:00,
2013-11-08 05:13:00,41.2,33.8,30.02,WNW,289,7.0,12.0,75,0.00,,,0.01,meteohub,2013-11-08 10:13:00,
2013-11-08 05:15:00,41.0,33.6,30.02,WNW,287,4.0,12.0,75,0.00,,,0.01,meteohub,2013-11-08 10:15:00,
2013-11-08 05:16:00,41.0,33.6,30.02,WNW,290,8.0,11.0,75,0.00,,,0.01,meteohub,2013-11-08 10:16:00,
2013-11-08 05:18:00,40.8,33.4,30.02,WNW,288,7.0,11.0,75,0.00,,,0.01,meteohub,2013-11-08 10:18:00,
2013-11-08 05:20:00,40.8,33.4,30.02,West,264,7.0,11.0,75,0.00,,,0.01,meteohub,2013-11-08 10:20:00,
2013-11-08 05:22:00,40.6,33.3,30.02,West,277,7.0,11.0,75,0.00,,,0.01,meteohub,2013-11-08 10:22:00,
2013-11-08 05:23:00,40.6,33.3,30.02,WNW,286,8.0,11.0,75,0.00,,,0.01,meteohub,2013-11-08 10:23:00,
2013-11-08 05:24:00,40.6,33.3,30.02,West,263,10.0,11.0,75,0.00,,,0.01,meteohub,2013-11-08 10:24:00,
2013-11-08 05:25:00,40.6,33.3,30.02,West,281,7.0,11.0,75,0.00,,,0.01,meteohub,2013-11-08 10:25:00,
2013-11-08 05:27:00,40.6,33.3,30.02,West,262,7.0,12.0,75,0.00,,,0.01,meteohub,2013-11-08 10:27:00,
2013-11-08 05:28:00,40.5,33.1,30.02,WNW,286,3.0,12.0,75,0.00,,,0.01,meteohub,2013-11-08 10:28:00,
2013-11-08 05:29:00,40.5,33.1,30.03,WNW,282,4.0,12.0,75,0.00,,,0.01,meteohub,2013-11-08 10:29:00,
2013-11-08 05:30:00,40.6,33.1,30.03,WNW,294,7.0,12.0,74,0.00,,,0.01,meteohub,2013-11-08 10:30:00,
2013-11-08 05:32:00,40.6,33.1,30.03,West,274,15.0,15.0,74,0.00,,,0.01,meteohub,2013-11-08 10:32:00,
2013-11-08 05:33:00,40.6,33.1,30.02,West,281,7.0,12.0,74,0.00,,,0.01,meteohub,2013-11-08 10:33:00,
2013-11-08 05:34:00,40.6,32.7,30.03,NW,314,10.0,12.0,73,0.00,,,0.01,meteohub,2013-11-08 10:34:00,
2013-11-08 05:35:00,40.6,32.7,30.03,West,271,7.0,12.0,73,0.00,,,0.01,meteohub,2013-11-08 10:35:00,
2013-11-08 05:38:00,40.6,32.7,30.03,West,280,9.0,15.0,73,0.00,,,0.01,meteohub,2013-11-08 10:38:00,
2013-11-08 05:39:00,40.6,33.1,30.03,WNW,292,4.0,15.0,74,0.00,,,0.01,meteohub,2013-11-08 10:39:00,
2013-11-08 05:40:00,40.5,32.9,30.03,WSW,257,3.0,15.0,74,0.00,,,0.01,meteohub,2013-11-08 10:40:00,
2013-11-08 05:41:00,40.5,32.9,30.03,WNW,298,4.0,15.0,74,0.00,,,0.01,meteohub,2013-11-08 10:41:00,
2013-11-08 05:43:00,40.3,32.7,30.03,West,271,4.0,15.0,74,0.00,,,0.01,meteohub,2013-11-08 10:43:00,
2013-11-08 05:44:00,40.3,32.7,30.03,WNW,284,4.0,15.0,74,0.00,,,0.01,meteohub,2013-11-08 10:44:00,
2013-11-08 05:45:00,40.3,32.7,30.03,West,270,4.0,15.0,74,0.00,,,0.01,meteohub,2013-11-08 10:45:00,
2013-11-08 05:46:00,40.1,32.5,30.03,West,266,4.0,15.0,74,0.00,,,0.01,meteohub,2013-11-08 10:46:00,
2013-11-08 05:48:00,39.9,32.4,30.04,WNW,286,3.0,15.0,74,0.00,,,0.01,meteohub,2013-11-08 10:48:00,
2013-11-08 05:49:00,39.9,32.7,30.04,West,279,6.0,15.0,75,0.00,,,0.01,meteohub,2013-11-08 10:49:00,
2013-11-08 05:50:00,39.9,32.7,30.04,WNW,286,7.0,13.0,75,0.00,,,0.01,meteohub,2013-11-08 10:50:00,
2013-11-08 05:51:00,39.9,32.7,30.04,West,278,8.0,13.0,75,0.00,,,0.01,meteohub,2013-11-08 10:51:00,
2013-11-08 05:53:00,39.7,32.5,30.04,WNW,289,4.0,13.0,75,0.00,,,0.01,meteohub,2013-11-08 10:53:00,
2013-11-08 05:54:00,39.7,32.5,30.04,WNW,293,7.0,13.0,75,0.00,,,0.01,meteohub,2013-11-08 10:54:00,
2013-11-08 05:55:00,39.7,32.5,30.04,WNW,297,7.0,13.0,75,0.00,,,0.01,meteohub,2013-11-08 10:55:00,
2013-11-08 05:56:00,39.6,32.4,30.04,West,271,4.0,13.0,75,0.00,,,0.01,meteohub,2013-11-08 10:56:00,
2013-11-08 05:59:00,39.6,32.5,30.04,WNW,296,4.0,13.0,76,0.00,,,0.01,meteohub,2013-11-08 10:59:00,
2013-11-08 06:00:00,39.6,32.5,30.04,WNW,298,7.0,13.0,76,0.00,,,0.01,meteohub,2013-11-08 11:00:00,
2013-11-08 06:01:00,39.6,32.5,30.04,WNW,282,7.0,12.0,76,0.00,,,0.01,meteohub,2013-11-08 11:01:00,
2013-11-08 06:02:00,39.6,32.4,30.04,WNW,301,9.0,12.0,75,0.00,,,0.01,meteohub,2013-11-08 11:02:00,
2013-11-08 06:04:00,39.4,32.2,30.04,West,261,2.0,12.0,75,0.00,,,0.01,meteohub,2013-11-08 11:04:00,
2013-11-08 06:06:00,39.4,32.5,30.04,West,265,8.0,12.0,76,0.00,,,0.01,meteohub,2013-11-08 11:06:00,
2013-11-08 06:07:00,39.4,32.5,30.04,WNW,287,5.0,12.0,76,0.00,,,0.01,meteohub,2013-11-08 11:07:00,
2013-11-08 06:09:00,39.2,32.4,30.04,NW,304,7.0,12.0,76,0.00,,,0.01,meteohub,2013-11-08 11:09:00,
2013-11-08 06:11:00,39.2,32.4,30.04,WNW,283,8.0,12.0,76,0.00,,,0.01,meteohub,2013-11-08 11:11:00,
2013-11-08 06:12:00,39.0,32.2,30.04,WNW,282,6.0,12.0,76,0.00,,,0.01,meteohub,2013-11-08 11:12:00,
2013-11-08 06:14:00,39.0,32.2,30.04,WNW,282,7.0,12.0,76,0.00,,,0.01,meteohub,2013-11-08 11:14:00,
2013-11-08 06:16:00,38.8,32.2,30.04,WNW,289,3.0,12.0,77,0.00,,,0.01,meteohub,2013-11-08 11:16:00,
2013-11-08 06:17:00,38.8,32.2,30.04,West,276,4.0,12.0,77,0.00,,,0.01,meteohub,2013-11-08 11:17:00,
2013-11-08 06:18:00,38.8,32.2,30.05,WNW,286,6.0,12.0,77,0.00,,,0.01,meteohub,2013-11-08 11:18:00,
2013-11-08 06:19:00,38.8,32.2,30.04,WNW,302,8.0,12.0,77,0.00,,,0.01,meteohub,2013-11-08 11:19:00,
2013-11-08 06:20:00,38.8,32.2,30.05,WNW,292,4.0,12.0,77,0.00,,,0.01,meteohub,2013-11-08 11:20:00,
2013-11-08 06:21:00,38.8,32.2,30.05,WNW,284,3.0,12.0,77,0.00,,,0.01,meteohub,2013-11-08 11:21:00,
2013-11-08 06:23:00,38.8,32.2,30.04,West,273,11.0,12.0,77,0.00,,,0.01,meteohub,2013-11-08 11:23:00,
2013-11-08 06:24:00,38.7,32.0,30.05,WSW,250,2.0,12.0,77,0.00,,,0.01,meteohub,2013-11-08 11:24:00,
2013-11-08 06:25:00,38.7,32.0,30.05,West,272,10.0,12.0,77,0.00,,,0.01,meteohub,2013-11-08 11:25:00,
2013-11-08 06:26:00,38.7,32.0,30.05,WNW,288,5.0,12.0,77,0.00,,,0.01,meteohub,2013-11-08 11:26:00,
2013-11-08 06:27:00,38.7,32.0,30.05,WSW,245,4.0,12.0,77,0.00,,,0.01,meteohub,2013-11-08 11:27:00,
2013-11-08 06:28:00,38.7,32.0,30.05,WNW,286,9.0,12.0,77,0.00,,,0.01,meteohub,2013-11-08 11:28:00,
2013-11-08 06:29:00,38.7,32.0,30.05,West,260,6.0,12.0,77,0.00,,,0.01,meteohub,2013-11-08 11:29:00,
2013-11-08 06:30:00,38.7,32.0,30.05,WSW,244,5.0,12.0,77,0.00,,,0.01,meteohub,2013-11-08 11:30:00,
2013-11-08 06:31:00,38.5,31.8,30.05,WNW,288,5.0,12.0,77,0.00,,,0.01,meteohub,2013-11-08 11:31:00,
2013-11-08 06:32:00,38.7,32.0,30.05,WNW,289,5.0,12.0,77,0.00,,,0.01,meteohub,2013-11-08 11:32:00,
2013-11-08 06:34:00,38.5,31.8,30.05,WSW,241,6.0,12.0,77,0.00,,,0.01,meteohub,2013-11-08 11:34:00,
2013-11-08 06:35:00,38.5,31.8,30.05,WNW,288,5.0,12.0,77,0.00,,,0.01,meteohub,2013-11-08 11:35:00,
2013-11-08 06:36:00,38.5,31.8,30.05,WSW,248,3.0,12.0,77,0.00,,,0.01,meteohub,2013-11-08 11:36:00,
2013-11-08 06:38:00,38.5,31.8,30.05,WSW,254,7.0,12.0,77,0.00,,,0.01,meteohub,2013-11-08 11:38:00,
2013-11-08 06:40:00,38.5,31.8,30.05,West,274,6.0,13.0,77,0.00,,,0.01,meteohub,2013-11-08 11:40:00,
2013-11-08 06:41:00,38.5,31.8,30.05,West,273,10.0,13.0,77,0.00,,,0.01,meteohub,2013-11-08 11:41:00,
2013-11-08 06:42:00,38.5,31.8,30.05,WNW,286,8.0,13.0,77,0.00,,,0.01,meteohub,2013-11-08 11:42:00,
2013-11-08 06:43:00,38.5,31.8,30.05,WNW,288,3.0,13.0,77,0.00,,,0.01,meteohub,2013-11-08 11:43:00,
2013-11-08 06:46:00,38.5,31.8,30.05,NW,307,13.0,13.0,77,0.00,,,0.01,meteohub,2013-11-08 11:46:00,
2013-11-08 06:47:00,38.5,31.8,30.05,WNW,296,10.0,13.0,77,0.00,,,0.01,meteohub,2013-11-08 11:47:00,
2013-11-08 06:48:00,38.5,31.8,30.05,West,279,11.0,13.0,77,0.00,,,0.01,meteohub,2013-11-08 11:48:00,
2013-11-08 06:49:00,38.5,31.8,30.05,West,261,7.0,13.0,77,0.00,,,0.01,meteohub,2013-11-08 11:49:00,
2013-11-08 06:51:00,38.5,31.8,30.05,WNW,294,9.0,13.0,77,0.00,,,0.01,meteohub,2013-11-08 11:51:00,
2013-11-08 06:52:00,38.5,31.8,30.05,WNW,286,6.0,13.0,77,0.00,,,0.01,meteohub,2013-11-08 11:52:00,
2013-11-08 06:53:00,38.5,31.8,30.05,West,271,8.0,13.0,77,0.00,,,0.01,meteohub,2013-11-08 11:53:00,
2013-11-08 06:54:00,38.5,31.8,30.05,NW,307,8.0,13.0,77,0.00,,,0.01,meteohub,2013-11-08 11:54:00,
2013-11-08 06:57:00,38.3,31.6,30.05,WNW,283,7.0,13.0,77,0.00,,,0.01,meteohub,2013-11-08 11:57:00,
2013-11-08 06:58:00,38.3,31.6,30.05,WNW,286,7.0,13.0,77,0.00,,,0.01,meteohub,2013-11-08 11:58:00,
2013-11-08 06:59:00,38.3,31.6,30.06,West,275,6.0,13.0,77,0.00,,,0.01,meteohub,2013-11-08 11:59:00,
2013-11-08 07:00:00,38.3,31.6,30.06,West,281,2.0,13.0,77,0.00,,,0.01,meteohub,2013-11-08 12:00:00,
2013-11-08 07:02:00,38.3,31.6,30.06,West,259,7.0,13.0,77,0.00,,,0.01,meteohub,2013-11-08 12:02:00,
2013-11-08 07:03:00,38.3,31.6,30.06,WSW,240,3.0,13.0,77,0.00,,,0.01,meteohub,2013-11-08 12:03:00,
2013-11-08 07:05:00,38.3,32.0,30.06,West,281,3.0,13.0,78,0.00,,,0.01,meteohub,2013-11-08 12:05:00,
2013-11-08 07:07:00,38.5,31.8,30.06,WNW,289,7.0,12.0,77,0.00,,,0.01,meteohub,2013-11-08 12:07:00,
2013-11-08 07:08:00,38.5,31.8,30.06,WSW,257,4.0,12.0,77,0.00,,,0.01,meteohub,2013-11-08 12:08:00,
2013-11-08 07:09:00,38.5,31.8,30.06,West,269,3.0,12.0,77,0.00,,,0.01,meteohub,2013-11-08 12:09:00,
2013-11-08 07:10:00,38.7,32.0,30.06,WNW,289,5.0,12.0,77,0.00,,,0.01,meteohub,2013-11-08 12:10:00,
2013-11-08 07:13:00,38.7,32.0,30.06,West,269,6.0,12.0,77,0.00,,,0.01,meteohub,2013-11-08 12:13:00,
2013-11-08 07:14:00,38.7,32.0,30.06,SW,228,7.0,12.0,77,0.00,,,0.01,meteohub,2013-11-08 12:14:00,
2013-11-08 07:15:00,38.7,32.0,30.06,WSW,255,10.0,12.0,77,0.00,,,0.01,meteohub,2013-11-08 12:15:00,
2013-11-08 07:16:00,38.7,31.8,30.06,WSW,252,8.0,12.0,76,0.00,,,0.01,meteohub,2013-11-08 12:16:00,
2013-11-08 07:18:00,38.8,32.0,30.06,West,263,4.0,12.0,76,0.00,,,0.01,meteohub,2013-11-08 12:18:00,
2013-11-08 07:19:00,38.8,32.0,30.06,WSW,247,3.0,12.0,76,0.00,,,0.01,meteohub,2013-11-08 12:19:00,
2013-11-08 07:20:00,38.8,32.0,30.06,West,277,10.0,12.0,76,0.00,,,0.01,meteohub,2013-11-08 12:20:00,
2013-11-08 07:22:00,38.8,32.0,30.06,NW,304,10.0,12.0,76,0.00,,,0.01,meteohub,2013-11-08 12:22:00,
2013-11-08 07:23:00,39.0,32.2,30.06,West,275,11.0,12.0,76,0.00,,,0.01,meteohub,2013-11-08 12:23:00,
2013-11-08 07:25:00,39.0,32.2,30.06,West,275,13.0,13.0,76,0.00,,,0.01,meteohub,2013-11-08 12:25:00,
2013-11-08 07:26:00,39.0,31.8,30.06,West,267,3.0,12.0,75,0.00,,,0.01,meteohub,2013-11-08 12:26:00,
2013-11-08 07:27:00,39.0,32.2,30.06,West,265,4.0,12.0,76,0.00,,,0.01,meteohub,2013-11-08 12:27:00,
2013-11-08 07:28:00,39.0,31.8,30.07,WNW,288,5.0,12.0,75,0.00,,,0.01,meteohub,2013-11-08 12:28:00,
2013-11-08 07:30:00,39.0,31.8,30.07,WNW,299,4.0,14.0,75,0.00,,,0.01,meteohub,2013-11-08 12:30:00,
2013-11-08 07:31:00,39.0,31.8,30.07,WSW,257,5.0,14.0,75,0.00,,,0.01,meteohub,2013-11-08 12:31:00,
2013-11-08 07:33:00,39.0,31.8,30.07,West,266,6.0,14.0,75,0.00,,,0.01,meteohub,2013-11-08 12:33:00,
2013-11-08 07:34:00,39.0,31.8,30.07,West,268,13.0,14.0,75,0.00,,,0.01,meteohub,2013-11-08 12:34:00,
2013-11-08 07:35:00,39.0,31.8,30.07,West,271,4.0,14.0,75,0.00,,,0.01,meteohub,2013-11-08 12:35:00,
2013-11-08 07:37:00,39.0,31.8,30.08,WNW,301,3.0,14.0,75,0.00,,,0.01,meteohub,2013-11-08 12:37:00,
2013-11-08 07:38:00,39.2,32.0,30.08,WNW,284,4.0,14.0,75,0.00,,,0.01,meteohub,2013-11-08 12:38:00,
2013-11-08 07:39:00,39.2,32.0,30.08,West,269,7.0,14.0,75,0.00,,,0.01,meteohub,2013-11-08 12:39:00,
2013-11-08 07:41:00,39.4,32.2,30.08,WNW,282,4.0,14.0,75,0.00,,,0.01,meteohub,2013-11-08 12:41:00,
2013-11-08 07:42:00,39.4,31.8,30.08,WNW,296,7.0,14.0,74,0.00,,,0.01,meteohub,2013-11-08 12:42:00,
2013-11-08 07:44:00,39.4,31.8,30.08,WNW,292,5.0,14.0,74,0.00,,,0.01,meteohub,2013-11-08 12:44:00,
2013-11-08 07:45:00,39.6,32.0,30.08,WSW,258,8.0,14.0,74,0.00,,,0.01,meteohub,2013-11-08 12:45:00,
2013-11-08 07:46:00,39.6,32.0,30.08,WNW,288,7.0,14.0,74,0.00,,,0.01,meteohub,2013-11-08 12:46:00,
2013-11-08 07:47:00,39.6,32.0,30.08,WNW,291,4.0,14.0,74,0.00,,,0.01,meteohub,2013-11-08 12:47:00,
2013-11-08 07:48:00,39.6,32.0,30.08,WNW,282,2.0,14.0,74,0.00,,,0.01,meteohub,2013-11-08 12:48:00,
2013-11-08 07:50:00,39.7,32.2,30.08,West,275,6.0,14.0,74,0.00,,,0.01,meteohub,2013-11-08 12:50:00,
2013-11-08 07:51:00,39.7,32.2,30.08,WNW,286,4.0,14.0,74,0.00,,,0.01,meteohub,2013-11-08 12:51:00,
2013-11-08 07:52:00,39.7,32.2,30.08,WNW,294,11.0,14.0,74,0.00,,,0.01,meteohub,2013-11-08 12:52:00,
2013-11-08 07:53:00,39.7,31.8,30.08,West,267,4.0,14.0,73,0.00,,,0.01,meteohub,2013-11-08 12:53:00,
2013-11-08 07:55:00,39.9,32.0,30.08,West,277,4.0,13.0,73,0.00,,,0.01,meteohub,2013-11-08 12:55:00,
2013-11-08 07:57:00,40.1,32.2,30.08,West,269,4.0,13.0,73,0.00,,,0.01,meteohub,2013-11-08 12:57:00,
2013-11-08 07:58:00,40.1,32.2,30.08,WNW,294,8.0,13.0,73,0.00,,,0.01,meteohub,2013-11-08 12:58:00,
2013-11-08 07:59:00,40.3,32.4,30.08,WNW,286,3.0,13.0,73,0.00,,,0.01,meteohub,2013-11-08 12:59:00,
2013-11-08 08:00:00,40.3,32.4,30.08,WSW,257,7.0,13.0,73,0.00,,,0.01,meteohub,2013-11-08 13:00:00,
2013-11-08 08:01:00,40.3,32.4,30.08,WNW,293,8.0,13.0,73,0.00,,,0.01,meteohub,2013-11-08 13:01:00,
2013-11-08 08:02:00,40.3,32.4,30.08,WNW,294,4.0,13.0,73,0.00,,,0.01,meteohub,2013-11-08 13:02:00,
2013-11-08 08:03:00,40.3,32.0,30.08,WNW,293,5.0,13.0,72,0.00,,,0.01,meteohub,2013-11-08 13:03:00,
2013-11-08 08:04:00,40.5,32.2,30.08,West,261,4.0,13.0,72,0.00,,,0.01,meteohub,2013-11-08 13:04:00,
2013-11-08 08:05:00,40.5,32.5,30.08,SSW,213,3.0,13.0,73,0.00,,,0.01,meteohub,2013-11-08 13:05:00,
2013-11-08 08:06:00,40.5,32.5,30.08,West,273,8.0,13.0,73,0.00,,,0.01,meteohub,2013-11-08 13:06:00,
2013-11-08 08:07:00,40.5,32.5,30.09,WNW,286,9.0,13.0,73,0.00,,,0.01,meteohub,2013-11-08 13:07:00,
2013-11-08 08:08:00,40.5,32.2,30.09,West,277,8.0,13.0,72,0.00,,,0.01,meteohub,2013-11-08 13:08:00,
2013-11-08 08:09:00,40.5,32.2,30.09,WNW,290,9.0,13.0,72,0.00,,,0.01,meteohub,2013-11-08 13:09:00,
2013-11-08 08:10:00,40.5,31.8,30.09,NW,313,11.0,13.0,71,0.00,,,0.01,meteohub,2013-11-08 13:10:00,
2013-11-08 08:11:00,40.6,32.4,30.09,West,281,4.0,15.0,72,0.00,,,0.01,meteohub,2013-11-08 13:11:00,
2013-11-08 08:13:00,40.6,32.4,30.09,WNW,295,7.0,15.0,72,0.00,,,0.01,meteohub,2013-11-08 13:13:00,
2013-11-08 08:14:00,40.6,32.4,30.09,WNW,296,10.0,15.0,72,0.00,,,0.01,meteohub,2013-11-08 13:14:00,
2013-11-08 08:15:00,40.8,32.5,30.09,WNW,300,3.0,15.0,72,0.00,,,0.01,meteohub,2013-11-08 13:15:00,
2013-11-08 08:16:00,40.8,32.5,30.09,WNW,303,8.0,15.0,72,0.00,,,0.01,meteohub,2013-11-08 13:16:00,
2013-11-08 08:19:00,41.0,32.7,30.09,West,272,8.0,15.0,72,0.00,,,0.01,meteohub,2013-11-08 13:19:00,
2013-11-08 08:20:00,41.2,32.5,30.09,WNW,290,7.0,15.0,71,0.00,,,0.01,meteohub,2013-11-08 13:20:00,
2013-11-08 08:21:00,41.2,32.5,30.09,WNW,282,6.0,15.0,71,0.00,,,0.01,meteohub,2013-11-08 13:21:00,
2013-11-08 08:22:00,41.2,32.5,30.09,WNW,284,4.0,15.0,71,0.00,,,0.01,meteohub,2013-11-08 13:22:00,
2013-11-08 08:24:00,41.4,32.7,30.09,West,277,7.0,15.0,71,0.00,,,0.01,meteohub,2013-11-08 13:24:00,
2013-11-08 08:25:00,41.4,32.7,30.09,West,273,3.0,14.0,71,0.00,,,0.01,meteohub,2013-11-08 13:25:00,
2013-11-08 08:26:00,41.4,32.7,30.09,West,267,3.0,14.0,71,0.00,,,0.01,meteohub,2013-11-08 13:26:00,
2013-11-08 08:27:00,41.4,32.7,30.09,West,281,7.0,14.0,71,0.00,,,0.01,meteohub,2013-11-08 13:27:00,
2013-11-08 08:29:00,41.5,32.9,30.09,West,277,11.0,14.0,71,0.00,,,0.01,meteohub,2013-11-08 13:29:00,
2013-11-08 08:30:00,41.5,32.5,30.09,West,281,6.0,14.0,70,0.00,,,0.01,meteohub,2013-11-08 13:30:00,
2013-11-08 08:31:00,41.7,32.7,30.09,West,269,10.0,14.0,70,0.00,,,0.01,meteohub,2013-11-08 13:31:00,
2013-11-08 08:32:00,41.7,33.1,30.09,West,269,4.0,14.0,71,0.00,,,0.01,meteohub,2013-11-08 13:32:00,
2013-11-08 08:36:00,41.9,32.9,30.09,West,259,8.0,14.0,70,0.00,,,0.01,meteohub,2013-11-08 13:36:00,
2013-11-08 08:37:00,41.9,32.9,30.09,WSW,248,4.0,14.0,70,0.00,,,0.01,meteohub,2013-11-08 13:37:00,
2013-11-08 08:38:00,42.1,33.1,30.09,West,273,12.0,14.0,70,0.00,,,0.01,meteohub,2013-11-08 13:38:00,
2013-11-08 08:41:00,42.3,32.9,30.09,West,273,4.0,13.0,69,0.00,,,0.01,meteohub,2013-11-08 13:41:00,
2013-11-08 08:43:00,42.3,33.3,30.09,West,281,14.0,14.0,70,0.00,,,0.01,meteohub,2013-11-08 13:43:00,
2013-11-08 08:46:00,42.4,33.1,30.09,SW,235,4.0,14.0,69,0.00,,,0.01,meteohub,2013-11-08 13:46:00,
2013-11-08 08:48:00,42.6,33.1,30.09,West,275,4.0,14.0,69,0.00,,,0.01,meteohub,2013-11-08 13:48:00,
2013-11-08 08:52:00,43.0,33.4,30.09,WNW,294,5.0,14.0,69,0.00,,,0.01,meteohub,2013-11-08 13:52:00,
2013-11-08 08:53:00,43.0,33.4,30.09,WSW,252,8.0,14.0,69,0.00,,,0.01,meteohub,2013-11-08 13:53:00,
2013-11-08 08:54:00,43.2,33.6,30.09,WNW,295,4.0,14.0,69,0.00,,,0.01,meteohub,2013-11-08 13:54:00,
2013-11-08 08:57:00,43.3,33.8,30.09,WNW,284,9.0,15.0,69,0.00,,,0.01,meteohub,2013-11-08 13:57:00,
2013-11-08 08:58:00,43.3,33.8,30.09,West,270,7.0,15.0,69,0.00,,,0.01,meteohub,2013-11-08 13:58:00,
2013-11-08 08:59:00,43.3,33.8,30.09,WNW,296,12.0,15.0,69,0.00,,,0.01,meteohub,2013-11-08 13:59:00,
2013-11-08 09:02:00,43.7,33.8,30.08,WSW,246,9.0,16.0,68,0.00,,,0.01,meteohub,2013-11-08 14:02:00,
2013-11-08 09:04:00,43.9,34.3,30.08,West,277,12.0,16.0,69,0.00,,,0.01,meteohub,2013-11-08 14:04:00,
2013-11-08 09:05:00,43.9,34.0,30.08,SW,231,5.0,16.0,68,0.00,,,0.01,meteohub,2013-11-08 14:05:00,
2013-11-08 09:07:00,44.1,34.2,30.08,SW,234,11.0,16.0,68,0.00,,,0.01,meteohub,2013-11-08 14:07:00,
2013-11-08 09:09:00,44.1,34.2,30.08,West,275,7.0,16.0,68,0.00,,,0.01,meteohub,2013-11-08 14:09:00,
2013-11-08 09:10:00,44.2,34.3,30.08,West,275,4.0,16.0,68,0.00,,,0.01,meteohub,2013-11-08 14:10:00,
2013-11-08 09:12:00,44.4,34.5,30.08,WNW,283,11.0,16.0,68,0.00,,,0.01,meteohub,2013-11-08 14:12:00,
2013-11-08 09:14:00,44.6,34.3,30.08,WNW,288,8.0,16.0,67,0.00,,,0.01,meteohub,2013-11-08 14:14:00,
2013-11-08 09:15:00,44.6,34.3,30.08,West,269,7.0,16.0,67,0.00,,,0.01,meteohub,2013-11-08 14:15:00,
2013-11-08 09:16:00,45.0,35.1,30.08,NW,306,11.0,16.0,68,0.00,,,0.01,meteohub,2013-11-08 14:16:00,
2013-11-08 09:17:00,45.0,34.7,30.08,West,260,7.0,16.0,67,0.00,,,0.01,meteohub,2013-11-08 14:17:00,
2013-11-08 09:19:00,45.1,34.9,30.08,WNW,284,13.0,16.0,67,0.00,,,0.01,meteohub,2013-11-08 14:19:00,
2013-11-08 09:20:00,45.1,34.9,30.07,NW,305,11.0,16.0,67,0.00,,,0.01,meteohub,2013-11-08 14:20:00,
2013-11-08 09:21:00,45.1,34.5,30.07,West,265,8.0,16.0,66,0.00,,,0.01,meteohub,2013-11-08 14:21:00,
2013-11-08 09:23:00,45.1,34.9,30.08,West,274,4.0,16.0,67,0.00,,,0.01,meteohub,2013-11-08 14:23:00,
2013-11-08 09:24:00,45.3,35.1,30.08,NW,308,9.0,16.0,67,0.00,,,0.01,meteohub,2013-11-08 14:24:00,
2013-11-08 09:25:00,45.5,35.2,30.08,WNW,283,9.0,15.0,67,0.00,,,0.01,meteohub,2013-11-08 14:25:00,
2013-11-08 09:26:00,45.5,35.2,30.08,WSW,258,10.0,15.0,67,0.00,,,0.01,meteohub,2013-11-08 14:26:00,
2013-11-08 09:27:00,45.5,34.9,30.08,WNW,296,13.0,15.0,66,0.00,,,0.01,meteohub,2013-11-08 14:27:00,
2013-11-08 09:28:00,45.5,34.9,30.08,WNW,289,8.0,15.0,66,0.00,,,0.01,meteohub,2013-11-08 14:28:00,
2013-11-08 09:29:00,45.7,35.1,30.07,WNW,292,3.0,15.0,66,0.00,,,0.01,meteohub,2013-11-08 14:29:00,
2013-11-08 09:31:00,45.7,35.1,30.07,West,281,10.0,19.0,66,0.00,,,0.01,meteohub,2013-11-08 14:31:00,
2013-11-08 09:32:00,45.7,35.1,30.07,West,277,6.0,19.0,66,0.00,,,0.01,meteohub,2013-11-08 14:32:00,
2013-11-08 09:33:00,45.9,35.1,30.07,WNW,285,7.0,19.0,66,0.00,,,0.01,meteohub,2013-11-08 14:33:00,
2013-11-08 09:35:00,45.9,34.7,30.07,West,274,4.0,19.0,65,0.00,,,0.01,meteohub,2013-11-08 14:35:00,
2013-11-08 09:37:00,46.0,34.9,30.07,WNW,291,5.0,19.0,65,0.00,,,0.01,meteohub,2013-11-08 14:37:00,
2013-11-08 09:38:00,46.0,34.9,30.07,West,279,6.0,19.0,65,0.00,,,0.01,meteohub,2013-11-08 14:38:00,
2013-11-08 09:40:00,46.2,35.4,30.07,West,264,3.0,19.0,66,0.00,,,0.01,meteohub,2013-11-08 14:40:00,
2013-11-08 09:42:00,46.4,35.2,30.07,WNW,294,9.0,19.0,65,0.00,,,0.01,meteohub,2013-11-08 14:42:00,
2013-11-08 09:43:00,46.4,34.9,30.07,WNW,283,9.0,19.0,64,0.00,,,0.01,meteohub,2013-11-08 14:43:00,
2013-11-08 09:44:00,46.4,34.5,30.07,NW,313,5.0,19.0,63,0.00,,,0.01,meteohub,2013-11-08 14:44:00,
2013-11-08 09:46:00,46.4,34.9,30.07,West,266,9.0,15.0,64,0.00,,,0.01,meteohub,2013-11-08 14:46:00,
2013-11-08 09:47:00,46.6,34.7,30.06,NW,314,13.0,15.0,63,0.00,,,0.01,meteohub,2013-11-08 14:47:00,
2013-11-08 09:48:00,46.6,34.7,30.06,WNW,296,13.0,15.0,63,0.00,,,0.01,meteohub,2013-11-08 14:48:00,
2013-11-08 09:49:00,46.6,34.7,30.06,WNW,301,11.0,15.0,63,0.00,,,0.01,meteohub,2013-11-08 14:49:00,
2013-11-08 09:51:00,46.6,34.7,30.07,WNW,294,5.0,16.0,63,0.00,,,0.01,meteohub,2013-11-08 14:51:00,
2013-11-08 09:52:00,46.8,34.9,30.06,WNW,288,7.0,16.0,63,0.00,,,0.01,meteohub,2013-11-08 14:52:00,
2013-11-08 09:53:00,46.8,34.9,30.06,WSW,239,4.0,16.0,63,0.00,,,0.01,meteohub,2013-11-08 14:53:00,
2013-11-08 09:54:00,46.8,34.9,30.06,West,261,6.0,16.0,63,0.00,,,0.01,meteohub,2013-11-08 14:54:00,
2013-11-08 09:55:00,46.8,34.9,30.06,WNW,298,11.0,16.0,63,0.00,,,0.01,meteohub,2013-11-08 14:55:00,
2013-11-08 09:57:00,46.9,35.1,30.06,WNW,284,6.0,16.0,63,0.00,,,0.01,meteohub,2013-11-08 14:57:00,
2013-11-08 09:58:00,46.9,35.1,30.06,WNW,298,7.0,16.0,63,0.00,,,0.01,meteohub,2013-11-08 14:58:00,
2013-11-08 09:59:00,47.1,35.6,30.06,WSW,257,11.0,16.0,64,0.00,,,0.01,meteohub,2013-11-08 14:59:00,
2013-11-08 10:01:00,47.1,34.7,30.06,NW,304,3.0,16.0,62,0.00,,,0.01,meteohub,2013-11-08 15:01:00,
2013-11-08 10:02:00,47.3,34.9,30.06,WNW,288,13.0,16.0,62,0.00,,,0.01,meteohub,2013-11-08 15:02:00,
2013-11-08 10:03:00,47.5,35.1,30.06,WNW,297,8.0,16.0,62,0.00,,,0.01,meteohub,2013-11-08 15:03:00,
2013-11-08 10:04:00,47.7,35.2,30.06,WNW,282,6.0,16.0,62,0.00,,,0.01,meteohub,2013-11-08 15:04:00,
2013-11-08 10:05:00,47.7,34.9,30.06,WNW,296,5.0,16.0,61,0.00,,,0.01,meteohub,2013-11-08 15:05:00,
2013-11-08 10:06:00,47.7,34.9,30.06,NW,306,12.0,16.0,61,0.00,,,0.01,meteohub,2013-11-08 15:06:00,
2013-11-08 10:07:00,47.8,34.7,30.06,WNW,293,14.0,16.0,60,0.00,,,0.01,meteohub,2013-11-08 15:07:00,
2013-11-08 10:08:00,47.7,34.0,30.06,WNW,294,8.0,16.0,59,0.00,,,0.01,meteohub,2013-11-08 15:08:00,
2013-11-08 10:10:00,47.8,34.7,30.06,West,260,4.0,20.0,60,0.00,,,0.01,meteohub,2013-11-08 15:10:00,
2013-11-08 10:12:00,47.8,34.7,30.06,WNW,284,14.0,20.0,60,0.00,,,0.01,meteohub,2013-11-08 15:12:00,
2013-11-08 10:13:00,47.8,34.7,30.06,West,260,13.0,20.0,60,0.00,,,0.01,meteohub,2013-11-08 15:13:00,
2013-11-08 10:15:00,48.0,34.9,30.06,NW,325,10.0,20.0,60,0.00,,,0.01,meteohub,2013-11-08 15:15:00,
2013-11-08 10:17:00,48.0,34.0,30.06,WNW,284,14.0,20.0,58,0.00,,,0.01,meteohub,2013-11-08 15:17:00,
2013-11-08 10:19:00,48.0,34.0,30.06,WNW,299,11.0,20.0,58,0.00,,,0.01,meteohub,2013-11-08 15:19:00,
2013-11-08 10:21:00,48.0,33.4,30.06,NW,304,7.0,18.0,57,0.00,,,0.01,meteohub,2013-11-08 15:21:00,
2013-11-08 10:22:00,48.0,34.0,30.06,West,280,18.0,18.0,58,0.00,,,0.01,meteohub,2013-11-08 15:22:00,
2013-11-08 10:23:00,48.0,34.0,30.06,WNW,290,14.0,18.0,58,0.00,,,0.01,meteohub,2013-11-08 15:23:00,
2013-11-08 10:24:00,48.0,34.0,30.06,West,275,10.0,18.0,58,0.00,,,0.01,meteohub,2013-11-08 15:24:00,
2013-11-08 10:26:00,48.4,34.3,30.06,West,259,11.0,21.0,58,0.00,,,0.01,meteohub,2013-11-08 15:26:00,
2013-11-08 10:27:00,48.4,34.3,30.06,West,281,9.0,21.0,58,0.00,,,0.01,meteohub,2013-11-08 15:27:00,
2013-11-08 10:28:00,48.6,34.5,30.06,West,281,9.0,21.0,58,0.00,,,0.01,meteohub,2013-11-08 15:28:00,
2013-11-08 10:29:00,48.6,34.5,30.06,West,267,9.0,21.0,58,0.00,,,0.01,meteohub,2013-11-08 15:29:00,
2013-11-08 10:32:00,48.9,34.9,30.06,WSW,243,5.0,21.0,58,0.00,,,0.01,meteohub,2013-11-08 15:32:00,
2013-11-08 10:33:00,49.1,34.9,30.06,West,268,6.0,21.0,58,0.00,,,0.01,meteohub,2013-11-08 15:33:00,
2013-11-08 10:34:00,49.1,34.5,30.06,WNW,294,8.0,21.0,57,0.00,,,0.01,meteohub,2013-11-08 15:34:00,
2013-11-08 10:37:00,49.1,34.2,30.06,WNW,292,13.0,19.0,56,0.00,,,0.01,meteohub,2013-11-08 15:37:00,
2013-11-08 10:38:00,48.9,34.0,30.06,WNW,292,10.0,19.0,56,0.00,,,0.01,meteohub,2013-11-08 15:38:00,
2013-11-08 10:39:00,48.9,34.3,30.06,WNW,282,11.0,19.0,57,0.00,,,0.01,meteohub,2013-11-08 15:39:00,
2013-11-08 10:42:00,49.3,35.1,30.06,NW,306,2.0,19.0,58,0.00,,,0.01,meteohub,2013-11-08 15:42:00,
2013-11-08 10:43:00,49.3,35.1,30.06,West,277,8.0,19.0,58,0.00,,,0.01,meteohub,2013-11-08 15:43:00,
2013-11-08 10:44:00,49.5,35.2,30.06,WNW,294,12.0,19.0,58,0.00,,,0.01,meteohub,2013-11-08 15:44:00,
2013-11-08 10:45:00,49.5,34.3,30.06,West,278,11.0,19.0,56,0.00,,,0.01,meteohub,2013-11-08 15:45:00,
2013-11-08 10:48:00,49.5,34.0,30.06,WNW,288,9.0,19.0,55,0.00,,,0.01,meteohub,2013-11-08 15:48:00,
2013-11-08 10:49:00,49.5,34.3,30.06,West,265,14.0,19.0,56,0.00,,,0.01,meteohub,2013-11-08 15:49:00,
2013-11-08 10:50:00,49.5,34.3,30.06,West,264,7.0,19.0,56,0.00,,,0.01,meteohub,2013-11-08 15:50:00,
2013-11-08 10:51:00,49.5,34.3,30.06,WNW,291,10.0,19.0,56,0.00,,,0.01,meteohub,2013-11-08 15:51:00,
2013-11-08 10:53:00,49.5,34.9,30.06,WSW,243,10.0,19.0,57,0.00,,,0.01,meteohub,2013-11-08 15:53:00,
2013-11-08 10:54:00,49.5,34.3,30.06,WNW,289,11.0,19.0,56,0.00,,,0.01,meteohub,2013-11-08 15:54:00,
2013-11-08 10:55:00,49.3,34.2,30.06,SW,233,7.0,19.0,56,0.00,,,0.01,meteohub,2013-11-08 15:55:00,
2013-11-08 10:56:00,49.3,34.7,30.06,WSW,240,9.0,19.0,57,0.00,,,0.01,meteohub,2013-11-08 15:56:00,
2013-11-08 10:58:00,49.3,34.7,30.06,West,277,14.0,19.0,57,0.00,,,0.01,meteohub,2013-11-08 15:58:00,
2013-11-08 10:59:00,49.3,34.7,30.06,West,267,7.0,19.0,57,0.00,,,0.01,meteohub,2013-11-08 15:59:00,
2013-11-08 11:02:00,49.3,33.8,30.06,WNW,290,5.0,19.0,55,0.00,,,0.01,meteohub,2013-11-08 16:02:00,
2013-11-08 11:03:00,49.5,33.4,30.06,WNW,286,11.0,19.0,54,0.00,,,0.01,meteohub,2013-11-08 16:03:00,
2013-11-08 11:04:00,49.5,33.4,30.06,WNW,292,5.0,19.0,54,0.00,,,0.01,meteohub,2013-11-08 16:04:00,
2013-11-08 11:05:00,49.5,34.0,30.06,West,271,7.0,19.0,55,0.00,,,0.01,meteohub,2013-11-08 16:05:00,
2013-11-08 11:07:00,49.5,34.0,30.06,WNW,299,8.0,19.0,55,0.00,,,0.01,meteohub,2013-11-08 16:07:00,
2013-11-08 11:08:00,49.6,34.5,30.06,NNW,334,17.0,19.0,56,0.00,,,0.01,meteohub,2013-11-08 16:08:00,
2013-11-08 11:09:00,49.6,34.5,30.06,West,266,14.0,19.0,56,0.00,,,0.01,meteohub,2013-11-08 16:09:00,
2013-11-08 11:10:00,49.6,33.6,30.06,WNW,286,13.0,19.0,54,0.00,,,0.01,meteohub,2013-11-08 16:10:00,
2013-11-08 11:11:00,49.6,34.2,30.06,SW,225,3.0,19.0,55,0.00,,,0.01,meteohub,2013-11-08 16:11:00,
2013-11-08 11:13:00,49.6,33.3,30.06,West,267,9.0,19.0,53,0.00,,,0.01,meteohub,2013-11-08 16:13:00,
2013-11-08 11:14:00,49.6,33.6,30.06,WNW,294,10.0,19.0,54,0.00,,,0.01,meteohub,2013-11-08 16:14:00,
2013-11-08 11:15:00,49.6,33.3,30.06,West,281,20.0,20.0,53,0.00,,,0.01,meteohub,2013-11-08 16:15:00,
2013-11-08 11:16:00,49.5,32.5,30.06,West,276,11.0,19.0,52,0.00,,,0.01,meteohub,2013-11-08 16:16:00,
2013-11-08 11:18:00,49.3,32.9,30.06,West,273,8.0,19.0,53,0.00,,,0.01,meteohub,2013-11-08 16:18:00,
2013-11-08 11:19:00,49.3,32.9,30.06,WSW,240,3.0,19.0,53,0.00,,,0.01,meteohub,2013-11-08 16:19:00,
2013-11-08 11:20:00,49.3,32.4,30.06,West,266,8.0,20.0,52,0.00,,,0.01,meteohub,2013-11-08 16:20:00,
2013-11-08 11:21:00,49.3,32.9,30.06,West,265,7.0,20.0,53,0.00,,,0.01,meteohub,2013-11-08 16:21:00,
2013-11-08 11:22:00,49.3,32.4,30.06,WSW,247,11.0,20.0,52,0.00,,,0.01,meteohub,2013-11-08 16:22:00,
2013-11-08 11:24:00,49.5,33.1,30.06,WNW,303,11.0,20.0,53,0.00,,,0.01,meteohub,2013-11-08 16:24:00,
2013-11-08 11:25:00,49.5,33.4,30.06,WNW,290,11.0,20.0,54,0.00,,,0.01,meteohub,2013-11-08 16:25:00,
2013-11-08 11:26:00,49.5,33.4,30.06,NW,307,8.0,20.0,54,0.00,,,0.01,meteohub,2013-11-08 16:26:00,
2013-11-08 11:27:00,49.5,33.4,30.06,WNW,295,10.0,20.0,54,0.00,,,0.01,meteohub,2013-11-08 16:27:00,
2013-11-08 11:28:00,49.6,33.3,30.06,NW,304,10.0,20.0,53,0.00,,,0.01,meteohub,2013-11-08 16:28:00,
2013-11-08 11:30:00,49.6,33.3,30.06,NW,310,8.0,20.0,53,0.00,,,0.01,meteohub,2013-11-08 16:30:00,
2013-11-08 11:31:00,49.6,33.6,30.06,West,281,13.0,20.0,54,0.00,,,0.01,meteohub,2013-11-08 16:31:00,
2013-11-08 11:32:00,49.6,33.6,30.06,WSW,248,9.0,20.0,54,0.00,,,0.01,meteohub,2013-11-08 16:32:00,
2013-11-08 11:33:00,49.5,33.4,30.06,WNW,298,8.0,20.0,54,0.00,,,0.01,meteohub,2013-11-08 16:33:00,
2013-11-08 11:35:00,49.5,33.4,30.06,WNW,292,11.0,16.0,54,0.00,,,0.01,meteohub,2013-11-08 16:35:00,
2013-11-08 11:36:00,49.5,33.4,30.06,WSW,256,3.0,16.0,54,0.00,,,0.01,meteohub,2013-11-08 16:36:00,
2013-11-08 11:37:00,49.6,33.6,30.06,WNW,296,12.0,16.0,54,0.00,,,0.01,meteohub,2013-11-08 16:37:00,
2013-11-08 11:39:00,49.6,33.3,30.05,NW,325,3.0,16.0,53,0.00,,,0.01,meteohub,2013-11-08 16:39:00,
2013-11-08 11:40:00,49.5,33.4,30.06,West,262,4.0,20.0,54,0.00,,,0.01,meteohub,2013-11-08 16:40:00,
2013-11-08 11:42:00,49.5,33.4,30.05,WNW,294,9.0,20.0,54,0.00,,,0.01,meteohub,2013-11-08 16:42:00,
2013-11-08 11:43:00,49.5,34.0,30.05,WSW,254,8.0,20.0,55,0.00,,,0.01,meteohub,2013-11-08 16:43:00,
2013-11-08 11:44:00,49.5,33.4,30.05,WNW,288,7.0,20.0,54,0.00,,,0.01,meteohub,2013-11-08 16:44:00,
2013-11-08 11:45:00,49.3,32.4,30.05,WNW,296,8.0,20.0,52,0.00,,,0.01,meteohub,2013-11-08 16:45:00,
2013-11-08 11:46:00,49.3,32.4,30.05,WSW,257,10.0,20.0,52,0.00,,,0.01,meteohub,2013-11-08 16:46:00,
2013-11-08 11:47:00,49.3,32.4,30.05,WSW,250,8.0,20.0,52,0.00,,,0.01,meteohub,2013-11-08 16:47:00,
2013-11-08 11:48:00,49.3,32.4,30.05,WSW,252,8.0,20.0,52,0.00,,,0.01,meteohub,2013-11-08 16:48:00,
2013-11-08 11:49:00,49.3,32.4,30.05,NW,308,7.0,20.0,52,0.00,,,0.01,meteohub,2013-11-08 16:49:00,
2013-11-08 11:52:00,49.5,32.5,30.05,West,280,6.0,17.0,52,0.00,,,0.01,meteohub,2013-11-08 16:52:00,
2013-11-08 11:53:00,49.5,32.5,30.05,WNW,292,14.0,17.0,52,0.00,,,0.01,meteohub,2013-11-08 16:53:00,
2013-11-08 11:54:00,49.3,32.0,30.05,West,262,10.0,17.0,51,0.00,,,0.01,meteohub,2013-11-08 16:54:00,
2013-11-08 11:57:00,49.3,32.4,30.05,West,267,7.0,16.0,52,0.00,,,0.01,meteohub,2013-11-08 16:57:00,
2013-11-08 11:59:00,49.3,32.0,30.05,WSW,254,11.0,16.0,51,0.00,,,0.01,meteohub,2013-11-08 16:59:00,
2013-11-08 12:00:00,49.3,32.0,30.05,WNW,296,11.0,16.0,51,0.00,,,0.01,meteohub,2013-11-08 17:00:00,
2013-11-08 12:02:00,49.1,32.2,30.05,WNW,298,8.0,16.0,52,0.00,,,0.01,meteohub,2013-11-08 17:02:00,
2013-11-08 12:05:00,49.1,32.2,30.05,WNW,294,12.0,16.0,52,0.00,,,0.01,meteohub,2013-11-08 17:05:00,
2013-11-08 12:06:00,48.9,32.0,30.05,West,271,6.0,16.0,52,0.00,,,0.01,meteohub,2013-11-08 17:06:00,
2013-11-08 12:07:00,48.9,32.0,30.05,WNW,298,10.0,16.0,52,0.00,,,0.01,meteohub,2013-11-08 17:07:00,
2013-11-08 12:08:00,48.9,32.0,30.05,WNW,298,9.0,16.0,52,0.00,,,0.01,meteohub,2013-11-08 17:08:00,
2013-11-08 12:10:00,48.7,31.8,30.05,WNW,282,4.0,20.0,52,0.00,,,0.01,meteohub,2013-11-08 17:10:00,
2013-11-08 12:11:00,48.6,31.8,30.05,WNW,296,7.0,20.0,52,0.00,,,0.01,meteohub,2013-11-08 17:11:00,
2013-11-08 12:12:00,48.6,32.2,30.05,WNW,295,9.0,20.0,53,0.00,,,0.01,meteohub,2013-11-08 17:12:00,
2013-11-08 12:13:00,48.6,32.2,30.05,WNW,301,9.0,20.0,53,0.00,,,0.01,meteohub,2013-11-08 17:13:00,
2013-11-08 12:17:00,48.6,32.2,30.05,West,279,8.0,20.0,53,0.00,,,0.01,meteohub,2013-11-08 17:17:00,
2013-11-08 12:18:00,48.4,32.0,30.05,West,273,7.0,20.0,53,0.00,,,0.01,meteohub,2013-11-08 17:18:00,
2013-11-08 12:19:00,48.4,32.0,30.05,West,280,10.0,20.0,53,0.00,,,0.01,meteohub,2013-11-08 17:19:00,
2013-11-08 12:22:00,48.4,31.6,30.05,WNW,282,17.0,20.0,52,0.00,,,0.01,meteohub,2013-11-08 17:22:00,
2013-11-08 12:23:00,48.4,31.6,30.05,WNW,287,5.0,20.0,52,0.00,,,0.01,meteohub,2013-11-08 17:23:00,
2013-11-08 12:24:00,48.4,31.6,30.05,WNW,286,11.0,20.0,52,0.00,,,0.01,meteohub,2013-11-08 17:24:00,
2013-11-08 12:27:00,48.2,30.9,30.05,West,275,6.0,19.0,51,0.00,,,0.01,meteohub,2013-11-08 17:27:00,
2013-11-08 12:28:00,48.2,30.9,30.05,West,263,8.0,19.0,51,0.00,,,0.01,meteohub,2013-11-08 17:28:00,
2013-11-08 12:29:00,48.2,30.9,30.05,WNW,301,12.0,19.0,51,0.00,,,0.01,meteohub,2013-11-08 17:29:00,
2013-11-08 12:32:00,48.0,30.7,30.05,West,264,7.0,19.0,51,0.00,,,0.01,meteohub,2013-11-08 17:32:00,
2013-11-08 12:33:00,48.0,30.7,30.05,WNW,282,10.0,19.0,51,0.00,,,0.01,meteohub,2013-11-08 17:33:00,
2013-11-08 12:34:00,48.0,30.7,30.05,WNW,287,10.0,19.0,51,0.00,,,0.01,meteohub,2013-11-08 17:34:00,
2013-11-08 12:36:00,48.0,30.7,30.05,WNW,297,5.0,19.0,51,0.00,,,0.01,meteohub,2013-11-08 17:36:00,
2013-11-08 12:37:00,48.0,30.7,30.05,West,263,4.0,19.0,51,0.00,,,0.01,meteohub,2013-11-08 17:37:00,
2013-11-08 12:38:00,48.0,30.7,30.05,WNW,285,15.0,19.0,51,0.00,,,0.01,meteohub,2013-11-08 17:38:00,
2013-11-08 12:39:00,48.0,31.3,30.05,WNW,282,11.0,19.0,52,0.00,,,0.01,meteohub,2013-11-08 17:39:00,
2013-11-08 12:40:00,48.0,31.3,30.05,WNW,287,8.0,19.0,52,0.00,,,0.01,meteohub,2013-11-08 17:40:00,
2013-11-08 12:41:00,48.0,31.6,30.05,WNW,289,13.0,19.0,53,0.00,,,0.01,meteohub,2013-11-08 17:41:00,
2013-11-08 12:44:00,48.0,31.6,30.05,WNW,297,5.0,19.0,53,0.00,,,0.01,meteohub,2013-11-08 17:44:00,
2013-11-08 12:45:00,48.0,31.6,30.05,WNW,297,4.0,19.0,53,0.00,,,0.01,meteohub,2013-11-08 17:45:00,
2013-11-08 12:47:00,48.2,31.5,30.05,NW,305,18.0,19.0,52,0.00,,,0.01,meteohub,2013-11-08 17:47:00,
2013-11-08 12:49:00,48.2,30.9,30.05,WNW,292,9.0,19.0,51,0.00,,,0.01,meteohub,2013-11-08 17:49:00,
2013-11-08 12:50:00,48.2,30.9,30.05,West,271,4.0,19.0,51,0.00,,,0.01,meteohub,2013-11-08 17:50:00,
2013-11-08 12:52:00,48.2,31.8,30.05,West,261,6.0,19.0,53,0.00,,,0.01,meteohub,2013-11-08 17:52:00,
2013-11-08 12:54:00,48.4,31.6,30.05,WNW,290,9.0,19.0,52,0.00,,,0.01,meteohub,2013-11-08 17:54:00,
2013-11-08 12:55:00,48.2,31.5,30.05,WNW,290,12.0,19.0,52,0.00,,,0.01,meteohub,2013-11-08 17:55:00,
2013-11-08 12:56:00,48.2,30.9,30.05,West,262,9.0,19.0,51,0.00,,,0.01,meteohub,2013-11-08 17:56:00,
2013-11-08 12:58:00,48.0,30.7,30.05,West,277,11.0,19.0,51,0.00,,,0.01,meteohub,2013-11-08 17:58:00,
2013-11-08 13:00:00,48.0,30.7,30.05,WNW,298,9.0,19.0,51,0.00,,,0.01,meteohub,2013-11-08 18:00:00,
2013-11-08 13:01:00,48.0,31.3,30.05,WNW,282,9.0,19.0,52,0.00,,,0.01,meteohub,2013-11-08 18:01:00,
2013-11-08 13:02:00,48.0,31.3,30.06,WNW,292,12.0,19.0,52,0.00,,,0.01,meteohub,2013-11-08 18:02:00,
2013-11-08 13:03:00,48.2,31.5,30.06,WNW,294,11.0,19.0,52,0.00,,,0.01,meteohub,2013-11-08 18:03:00,
2013-11-08 13:05:00,48.4,31.6,30.06,WNW,286,16.0,19.0,52,0.00,,,0.01,meteohub,2013-11-08 18:05:00,
2013-11-08 13:06:00,48.2,30.9,30.06,West,281,11.0,19.0,51,0.00,,,0.01,meteohub,2013-11-08 18:06:00,
2013-11-08 13:07:00,48.2,31.5,30.06,West,277,8.0,19.0,52,0.00,,,0.01,meteohub,2013-11-08 18:07:00,
2013-11-08 13:08:00,48.2,31.8,30.06,WNW,293,11.0,19.0,53,0.00,,,0.01,meteohub,2013-11-08 18:08:00,
2013-11-08 13:09:00,48.2,31.8,30.06,WNW,300,13.0,19.0,53,0.00,,,0.01,meteohub,2013-11-08 18:09:00,
2013-11-08 13:11:00,48.4,32.0,30.06,NW,309,10.0,21.0,53,0.00,,,0.01,meteohub,2013-11-08 18:11:00,
2013-11-08 13:12:00,48.4,32.0,30.06,West,267,12.0,21.0,53,0.00,,,0.01,meteohub,2013-11-08 18:12:00,
2013-11-08 13:14:00,48.2,31.5,30.06,WNW,293,13.0,21.0,52,0.00,,,0.01,meteohub,2013-11-08 18:14:00,
2013-11-08 13:16:00,48.2,31.5,30.06,WNW,283,13.0,21.0,52,0.00,,,0.01,meteohub,2013-11-08 18:16:00,
2013-11-08 13:17:00,48.2,30.9,30.06,NW,316,12.0,21.0,51,0.00,,,0.01,meteohub,2013-11-08 18:17:00,
2013-11-08 13:19:00,48.0,30.7,30.06,NW,306,5.0,21.0,51,0.00,,,0.01,meteohub,2013-11-08 18:19:00,
2013-11-08 13:22:00,48.0,30.7,30.06,NW,319,15.0,21.0,51,0.00,,,0.01,meteohub,2013-11-08 18:22:00,
2013-11-08 13:25:00,48.2,30.9,30.06,WNW,288,5.0,18.0,51,0.00,,,0.01,meteohub,2013-11-08 18:25:00,
2013-11-08 13:27:00,48.2,30.9,30.06,WNW,291,14.0,18.0,51,0.00,,,0.01,meteohub,2013-11-08 18:27:00,
2013-11-08 13:28:00,48.4,31.1,30.06,West,269,12.0,18.0,51,0.00,,,0.01,meteohub,2013-11-08 18:28:00,
2013-11-08 13:32:00,48.4,30.6,30.06,WNW,300,9.0,25.0,50,0.00,,,0.01,meteohub,2013-11-08 18:32:00,
2013-11-08 13:33:00,48.4,30.0,30.06,WSW,257,4.0,25.0,49,0.00,,,0.01,meteohub,2013-11-08 18:33:00,
2013-11-08 13:38:00,48.7,30.4,30.06,WNW,297,2.0,25.0,49,0.00,,,0.01,meteohub,2013-11-08 18:38:00,
2013-11-08 13:39:00,48.7,30.4,30.06,WNW,294,14.0,25.0,49,0.00,,,0.01,meteohub,2013-11-08 18:39:00,
2013-11-08 13:43:00,49.1,30.7,30.06,WNW,300,13.0,25.0,49,0.00,,,0.01,meteohub,2013-11-08 18:43:00,
2013-11-08 13:44:00,49.3,30.9,30.06,West,271,11.0,25.0,49,0.00,,,0.01,meteohub,2013-11-08 18:44:00,
2013-11-08 13:48:00,48.9,30.6,30.06,WSW,258,8.0,25.0,49,0.00,,,0.01,meteohub,2013-11-08 18:48:00,
2013-11-08 13:49:00,48.9,30.6,30.06,WNW,288,12.0,25.0,49,0.00,,,0.01,meteohub,2013-11-08 18:49:00,
2013-11-08 13:50:00,48.7,30.9,30.06,West,274,2.0,25.0,50,0.00,,,0.01,meteohub,2013-11-08 18:50:00,
2013-11-08 13:54:00,48.7,30.9,30.07,WNW,296,9.0,25.0,50,0.00,,,0.01,meteohub,2013-11-08 18:54:00,
2013-11-08 13:55:00,48.6,30.7,30.06,WNW,300,13.0,23.0,50,0.00,,,0.01,meteohub,2013-11-08 18:55:00,
2013-11-08 13:59:00,48.6,31.8,30.07,WNW,294,7.0,23.0,52,0.00,,,0.01,meteohub,2013-11-08 18:59:00,
2013-11-08 14:00:00,48.6,31.8,30.07,West,281,8.0,23.0,52,0.00,,,0.01,meteohub,2013-11-08 19:00:00,
2013-11-08 14:01:00,48.6,31.8,30.07,West,266,12.0,23.0,52,0.00,,,0.01,meteohub,2013-11-08 19:01:00,
2013-11-08 14:04:00,48.7,31.5,30.07,NW,305,5.0,23.0,51,0.00,,,0.01,meteohub,2013-11-08 19:04:00,
2013-11-08 14:05:00,48.7,31.5,30.07,NW,321,9.0,23.0,51,0.00,,,0.01,meteohub,2013-11-08 19:05:00,
2013-11-08 14:06:00,48.7,31.5,30.07,West,269,6.0,16.0,51,0.00,,,0.01,meteohub,2013-11-08 19:06:00,
2013-11-08 14:07:00,48.7,31.5,30.07,WNW,282,6.0,16.0,51,0.00,,,0.01,meteohub,2013-11-08 19:07:00,
2013-11-08 14:10:00,48.6,30.7,30.07,WNW,294,9.0,16.0,50,0.00,,,0.01,meteohub,2013-11-08 19:10:00,
2013-11-08 14:11:00,48.6,30.7,30.07,South,176,2.0,14.0,50,0.00,,,0.01,meteohub,2013-11-08 19:11:00,
2013-11-08 14:12:00,48.6,30.7,30.07,West,281,4.0,14.0,50,0.00,,,0.01,meteohub,2013-11-08 19:12:00,
2013-11-08 14:15:00,48.6,30.7,30.07,WNW,295,5.0,21.0,50,0.00,,,0.01,meteohub,2013-11-08 19:15:00,
2013-11-08 14:16:00,48.6,30.7,30.07,WNW,290,7.0,21.0,50,0.00,,,0.01,meteohub,2013-11-08 19:16:00,
2013-11-08 14:17:00,48.6,31.3,30.07,WNW,290,4.0,21.0,51,0.00,,,0.01,meteohub,2013-11-08 19:17:00,
2013-11-08 14:18:00,48.6,31.8,30.07,NNW,338,2.0,21.0,52,0.00,,,0.01,meteohub,2013-11-08 19:18:00,
2013-11-08 14:20:00,48.6,31.8,30.07,NW,304,4.0,21.0,52,0.00,,,0.01,meteohub,2013-11-08 19:20:00,
2013-11-08 14:22:00,48.6,31.3,30.07,West,281,6.0,21.0,51,0.00,,,0.01,meteohub,2013-11-08 19:22:00,
2013-11-08 14:23:00,48.6,31.3,30.07,WSW,254,5.0,21.0,51,0.00,,,0.01,meteohub,2013-11-08 19:23:00,
2013-11-08 14:24:00,48.6,31.3,30.07,SSW,201,2.0,21.0,51,0.00,,,0.01,meteohub,2013-11-08 19:24:00,
2013-11-08 14:26:00,48.6,31.8,30.07,WNW,299,3.0,15.0,52,0.00,,,0.01,meteohub,2013-11-08 19:26:00,
2013-11-08 14:27:00,48.6,31.3,30.07,WSW,258,4.0,15.0,51,0.00,,,0.01,meteohub,2013-11-08 19:27:00,
2013-11-08 14:29:00,48.6,31.3,30.07,WNW,282,3.0,15.0,51,0.00,,,0.01,meteohub,2013-11-08 19:29:00,
2013-11-08 14:30:00,48.6,31.3,30.07,South,178,2.0,15.0,51,0.00,,,0.01,meteohub,2013-11-08 19:30:00,
2013-11-08 14:31:00,48.6,31.3,30.08,West,270,2.0,15.0,51,0.00,,,0.01,meteohub,2013-11-08 19:31:00,
2013-11-08 14:32:00,48.6,31.3,30.08,West,268,7.0,15.0,51,0.00,,,0.01,meteohub,2013-11-08 19:32:00,
2013-11-08 14:33:00,48.6,30.7,30.08,West,267,7.0,15.0,50,0.00,,,0.01,meteohub,2013-11-08 19:33:00,
2013-11-08 14:35:00,48.6,31.3,30.08,NW,311,1.0,15.0,51,0.00,,,0.01,meteohub,2013-11-08 19:35:00,
2013-11-08 14:36:00,48.6,31.3,30.07,NE,48,3.0,15.0,51,0.00,,,0.01,meteohub,2013-11-08 19:36:00,
2013-11-08 14:37:00,48.6,30.7,30.07,NE,40,2.0,15.0,50,0.00,,,0.01,meteohub,2013-11-08 19:37:00,
2013-11-08 14:38:00,48.6,30.7,30.07,West,271,4.0,15.0,50,0.00,,,0.01,meteohub,2013-11-08 19:38:00,
2013-11-08 14:40:00,48.6,31.3,30.08,WNW,300,10.0,11.0,51,0.00,,,0.01,meteohub,2013-11-08 19:40:00,
2013-11-08 14:42:00,48.6,31.3,30.08,NNE,16,4.0,11.0,51,0.00,,,0.01,meteohub,2013-11-08 19:42:00,
2013-11-08 14:43:00,48.6,31.3,30.08,NW,315,10.0,11.0,51,0.00,,,0.01,meteohub,2013-11-08 19:43:00,
2013-11-08 14:44:00,48.4,31.1,30.08,West,260,6.0,11.0,51,0.00,,,0.01,meteohub,2013-11-08 19:44:00,
2013-11-08 14:46:00,48.4,30.6,30.08,SW,229,16.0,16.0,50,0.00,,,0.01,meteohub,2013-11-08 19:46:00,
2013-11-08 14:47:00,48.6,30.2,30.08,WNW,298,5.0,11.0,49,0.00,,,0.01,meteohub,2013-11-08 19:47:00,
2013-11-08 14:48:00,48.6,30.2,30.08,WNW,299,7.0,11.0,49,0.00,,,0.01,meteohub,2013-11-08 19:48:00,
2013-11-08 14:49:00,48.7,30.4,30.08,West,279,13.0,13.0,49,0.00,,,0.01,meteohub,2013-11-08 19:49:00,
2013-11-08 14:52:00,48.7,29.8,30.08,SSW,203,6.0,16.0,48,0.00,,,0.01,meteohub,2013-11-08 19:52:00,
2013-11-08 14:53:00,48.7,29.8,30.08,WNW,300,9.0,16.0,48,0.00,,,0.01,meteohub,2013-11-08 19:53:00,
2013-11-08 14:54:00,48.7,29.8,30.08,WSW,244,11.0,16.0,48,0.00,,,0.01,meteohub,2013-11-08 19:54:00,
2013-11-08 14:57:00,48.9,30.0,30.08,WNW,293,11.0,21.0,48,0.00,,,0.01,meteohub,2013-11-08 19:57:00,
2013-11-08 14:58:00,49.1,30.2,30.08,WNW,283,8.0,21.0,48,0.00,,,0.01,meteohub,2013-11-08 19:58:00,
2013-11-08 14:59:00,49.3,30.4,30.08,WNW,285,10.0,21.0,48,0.00,,,0.01,meteohub,2013-11-08 19:59:00,
2013-11-08 15:01:00,49.5,31.1,30.08,NW,309,11.0,21.0,49,0.00,,,0.01,meteohub,2013-11-08 20:01:00,
2013-11-08 15:02:00,49.5,31.1,30.08,WNW,298,4.0,21.0,49,0.00,,,0.01,meteohub,2013-11-08 20:02:00,
2013-11-08 15:03:00,49.6,31.3,30.08,West,277,10.0,21.0,49,0.00,,,0.01,meteohub,2013-11-08 20:03:00,
2013-11-08 15:04:00,49.6,31.3,30.08,WNW,286,18.0,21.0,49,0.00,,,0.01,meteohub,2013-11-08 20:04:00,
2013-11-08 15:05:00,49.5,31.1,30.08,West,280,6.0,21.0,49,0.00,,,0.01,meteohub,2013-11-08 20:05:00,
2013-11-08 15:07:00,49.5,31.1,30.09,West,271,7.0,21.0,49,0.00,,,0.01,meteohub,2013-11-08 20:07:00,
2013-11-08 15:08:00,49.5,31.6,30.09,West,266,12.0,21.0,50,0.00,,,0.01,meteohub,2013-11-08 20:08:00,
2013-11-08 15:09:00,49.5,31.1,30.09,WNW,290,8.0,21.0,49,0.00,,,0.01,meteohub,2013-11-08 20:09:00,
2013-11-08 15:10:00,49.5,30.6,30.09,WNW,296,10.0,18.0,48,0.00,,,0.01,meteohub,2013-11-08 20:10:00,
2013-11-08 15:11:00,49.3,30.4,30.09,West,280,8.0,18.0,48,0.00,,,0.01,meteohub,2013-11-08 20:11:00,
2013-11-08 15:13:00,49.3,30.9,30.09,WNW,294,10.0,18.0,49,0.00,,,0.01,meteohub,2013-11-08 20:13:00,
2013-11-08 15:15:00,48.9,30.0,30.09,West,275,14.0,18.0,48,0.00,,,0.01,meteohub,2013-11-08 20:15:00,
2013-11-08 15:16:00,48.9,30.6,30.09,WNW,284,8.0,18.0,49,0.00,,,0.01,meteohub,2013-11-08 20:16:00,
2013-11-08 15:18:00,48.9,30.6,30.09,WNW,302,8.0,18.0,49,0.00,,,0.01,meteohub,2013-11-08 20:18:00,
2013-11-08 15:19:00,48.9,30.6,30.09,NW,309,9.0,18.0,49,0.00,,,0.01,meteohub,2013-11-08 20:19:00,
2013-11-08 15:20:00,48.9,31.1,30.09,NNW,331,12.0,17.0,50,0.00,,,0.01,meteohub,2013-11-08 20:20:00,
2013-11-08 15:21:00,48.9,30.6,30.09,WNW,293,8.0,17.0,49,0.00,,,0.01,meteohub,2013-11-08 20:21:00,
2013-11-08 15:22:00,48.7,30.9,30.09,WSW,246,8.0,17.0,50,0.00,,,0.01,meteohub,2013-11-08 20:22:00,
2013-11-08 15:23:00,48.7,30.4,30.09,NW,318,13.0,17.0,49,0.00,,,0.01,meteohub,2013-11-08 20:23:00,
2013-11-08 15:24:00,48.7,30.4,30.09,West,277,8.0,17.0,49,0.00,,,0.01,meteohub,2013-11-08 20:24:00,
2013-11-08 15:26:00,48.7,30.4,30.09,WNW,294,8.0,15.0,49,0.00,,,0.01,meteohub,2013-11-08 20:26:00,
2013-11-08 15:28:00,48.7,30.9,30.09,WNW,292,11.0,15.0,50,0.00,,,0.01,meteohub,2013-11-08 20:28:00,
2013-11-08 15:29:00,48.7,30.4,30.09,WNW,298,5.0,15.0,49,0.00,,,0.01,meteohub,2013-11-08 20:29:00,
2013-11-08 15:32:00,48.7,30.9,30.09,West,275,10.0,15.0,50,0.00,,,0.01,meteohub,2013-11-08 20:32:00,
2013-11-08 15:33:00,48.7,30.4,30.09,WNW,302,11.0,15.0,49,0.00,,,0.01,meteohub,2013-11-08 20:33:00,
2013-11-08 15:34:00,48.7,30.4,30.09,West,281,8.0,15.0,49,0.00,,,0.01,meteohub,2013-11-08 20:34:00,
2013-11-08 15:35:00,48.7,30.4,30.09,WNW,289,7.0,15.0,49,0.00,,,0.01,meteohub,2013-11-08 20:35:00,
2013-11-08 15:37:00,48.7,30.9,30.09,WNW,283,9.0,16.0,50,0.00,,,0.01,meteohub,2013-11-08 20:37:00,
2013-11-08 15:38:00,48.7,30.4,30.09,WNW,301,9.0,16.0,49,0.00,,,0.01,meteohub,2013-11-08 20:38:00,
2013-11-08 15:39:00,48.7,30.9,30.09,West,276,7.0,16.0,50,0.00,,,0.01,meteohub,2013-11-08 20:39:00,
2013-11-08 15:40:00,48.7,30.9,30.09,WNW,284,3.0,16.0,50,0.00,,,0.01,meteohub,2013-11-08 20:40:00,
2013-11-08 15:43:00,48.7,30.9,30.10,NW,311,9.0,16.0,50,0.00,,,0.01,meteohub,2013-11-08 20:43:00,
2013-11-08 15:44:00,48.7,30.9,30.10,West,280,6.0,16.0,50,0.00,,,0.01,meteohub,2013-11-08 20:44:00,
2013-11-08 15:46:00,48.7,30.9,30.10,West,277,10.0,16.0,50,0.00,,,0.01,meteohub,2013-11-08 20:46:00,
2013-11-08 15:47:00,48.6,30.7,30.10,WNW,299,4.0,16.0,50,0.00,,,0.01,meteohub,2013-11-08 20:47:00,
2013-11-08 15:48:00,48.6,30.7,30.10,WNW,283,6.0,16.0,50,0.00,,,0.01,meteohub,2013-11-08 20:48:00,
2013-11-08 15:49:00,48.6,31.3,30.10,SW,233,10.0,16.0,51,0.00,,,0.01,meteohub,2013-11-08 20:49:00,
2013-11-08 15:52:00,48.4,30.6,30.10,WNW,291,9.0,13.0,50,0.00,,,0.01,meteohub,2013-11-08 20:52:00,
2013-11-08 15:53:00,48.4,31.1,30.10,WNW,288,10.0,13.0,51,0.00,,,0.01,meteohub,2013-11-08 20:53:00,
2013-11-08 15:54:00,48.4,31.1,30.10,WNW,296,11.0,13.0,51,0.00,,,0.01,meteohub,2013-11-08 20:54:00,
2013-11-08 15:57:00,48.2,30.9,30.10,WNW,288,10.0,18.0,51,0.00,,,0.01,meteohub,2013-11-08 20:57:00,
2013-11-08 15:58:00,48.2,30.9,30.10,WNW,282,7.0,18.0,51,0.00,,,0.01,meteohub,2013-11-08 20:58:00,
2013-11-08 15:59:00,48.2,30.9,30.10,WNW,289,9.0,18.0,51,0.00,,,0.01,meteohub,2013-11-08 20:59:00,
2013-11-08 16:00:00,48.2,30.9,30.10,WSW,258,8.0,18.0,51,0.00,,,0.01,meteohub,2013-11-08 21:00:00,
2013-11-08 16:02:00,48.2,31.5,30.10,WNW,288,4.0,18.0,52,0.00,,,0.01,meteohub,2013-11-08 21:02:00,
2013-11-08 16:03:00,48.2,31.5,30.10,WSW,240,8.0,18.0,52,0.00,,,0.01,meteohub,2013-11-08 21:03:00,
2013-11-08 16:05:00,48.2,30.9,30.10,NW,307,16.0,18.0,51,0.00,,,0.01,meteohub,2013-11-08 21:05:00,
2013-11-08 16:07:00,48.0,30.7,30.10,WNW,301,9.0,15.0,51,0.00,,,0.01,meteohub,2013-11-08 21:07:00,
2013-11-08 16:08:00,48.0,30.7,30.10,WNW,294,4.0,15.0,51,0.00,,,0.01,meteohub,2013-11-08 21:08:00,
2013-11-08 16:10:00,48.0,31.3,30.10,West,265,3.0,16.0,52,0.00,,,0.01,meteohub,2013-11-08 21:10:00,
2013-11-08 16:11:00,48.0,31.3,30.10,WNW,298,11.0,16.0,52,0.00,,,0.01,meteohub,2013-11-08 21:11:00,
2013-11-08 16:13:00,48.0,30.2,30.10,West,279,4.0,16.0,50,0.00,,,0.01,meteohub,2013-11-08 21:13:00,
2013-11-08 16:15:00,47.8,31.1,30.11,NW,307,3.0,16.0,52,0.00,,,0.01,meteohub,2013-11-08 21:15:00,
2013-11-08 16:16:00,47.8,31.1,30.11,WNW,283,4.0,16.0,52,0.00,,,0.01,meteohub,2013-11-08 21:16:00,
2013-11-08 16:18:00,47.8,31.1,30.11,WNW,296,5.0,16.0,52,0.00,,,0.01,meteohub,2013-11-08 21:18:00,
2013-11-08 16:19:00,47.8,31.5,30.11,West,279,9.0,16.0,53,0.00,,,0.01,meteohub,2013-11-08 21:19:00,
2013-11-08 16:20:00,47.8,31.1,30.11,NW,308,13.0,15.0,52,0.00,,,0.01,meteohub,2013-11-08 21:20:00,
2013-11-08 16:21:00,47.7,30.9,30.11,West,275,8.0,15.0,52,0.00,,,0.01,meteohub,2013-11-08 21:21:00,
2013-11-08 16:24:00,47.7,31.3,30.12,West,273,6.0,15.0,53,0.00,,,0.01,meteohub,2013-11-08 21:24:00,
2013-11-08 16:25:00,47.7,31.3,30.12,WNW,289,5.0,17.0,53,0.00,,,0.01,meteohub,2013-11-08 21:25:00,
2013-11-08 16:26:00,47.7,31.3,30.12,WNW,290,4.0,17.0,53,0.00,,,0.01,meteohub,2013-11-08 21:26:00,
2013-11-08 16:27:00,47.7,31.8,30.12,West,266,6.0,17.0,54,0.00,,,0.01,meteohub,2013-11-08 21:27:00,
2013-11-08 16:29:00,47.5,31.6,30.12,WNW,301,7.0,17.0,54,0.00,,,0.01,meteohub,2013-11-08 21:29:00,
2013-11-08 16:31:00,47.5,31.6,30.12,WNW,286,3.0,17.0,54,0.00,,,0.01,meteohub,2013-11-08 21:31:00,
2013-11-08 16:32:00,47.3,31.5,30.12,West,277,6.0,17.0,54,0.00,,,0.01,meteohub,2013-11-08 21:32:00,
2013-11-08 16:33:00,47.3,31.5,30.12,WNW,298,9.0,17.0,54,0.00,,,0.01,meteohub,2013-11-08 21:33:00,
2013-11-08 16:34:00,47.1,31.3,30.12,WNW,292,5.0,17.0,54,0.00,,,0.01,meteohub,2013-11-08 21:34:00,
2013-11-08 16:35:00,47.1,31.3,30.12,West,274,8.0,17.0,54,0.00,,,0.01,meteohub,2013-11-08 21:35:00,
2013-11-08 16:36:00,47.1,31.3,30.12,WNW,296,4.0,17.0,54,0.00,,,0.01,meteohub,2013-11-08 21:36:00,
2013-11-08 16:37:00,47.1,31.8,30.12,WNW,297,4.0,17.0,55,0.00,,,0.01,meteohub,2013-11-08 21:37:00,
2013-11-08 16:38:00,46.9,31.6,30.12,WNW,294,7.0,17.0,55,0.00,,,0.01,meteohub,2013-11-08 21:38:00,
2013-11-08 16:40:00,46.9,31.6,30.12,WNW,297,11.0,17.0,55,0.00,,,0.01,meteohub,2013-11-08 21:40:00,
2013-11-08 16:41:00,46.9,31.6,30.12,West,262,7.0,12.0,55,0.00,,,0.01,meteohub,2013-11-08 21:41:00,
2013-11-08 16:42:00,46.9,31.6,30.12,WNW,297,3.0,12.0,55,0.00,,,0.01,meteohub,2013-11-08 21:42:00,
2013-11-08 16:44:00,46.8,31.5,30.12,WNW,284,6.0,12.0,55,0.00,,,0.01,meteohub,2013-11-08 21:44:00,
2013-11-08 16:45:00,46.8,31.5,30.12,West,280,4.0,12.0,55,0.00,,,0.01,meteohub,2013-11-08 21:45:00,
2013-11-08 16:46:00,46.8,31.5,30.12,WNW,290,3.0,12.0,55,0.00,,,0.01,meteohub,2013-11-08 21:46:00,
2013-11-08 16:47:00,46.8,31.5,30.12,West,280,8.0,12.0,55,0.00,,,0.01,meteohub,2013-11-08 21:47:00,
2013-11-08 16:48:00,46.8,31.8,30.12,West,263,7.0,12.0,56,0.00,,,0.01,meteohub,2013-11-08 21:48:00,
2013-11-08 16:50:00,46.6,31.3,30.12,West,266,4.0,12.0,55,0.00,,,0.01,meteohub,2013-11-08 21:50:00,
2013-11-08 16:51:00,46.6,31.6,30.12,NW,312,5.0,12.0,56,0.00,,,0.01,meteohub,2013-11-08 21:51:00,
2013-11-08 16:53:00,46.6,31.3,30.12,West,279,7.0,12.0,55,0.00,,,0.01,meteohub,2013-11-08 21:53:00,
2013-11-08 16:55:00,46.6,31.3,30.12,WSW,237,4.0,12.0,55,0.00,,,0.01,meteohub,2013-11-08 21:55:00,
2013-11-08 16:56:00,46.4,31.1,30.13,WNW,284,9.0,15.0,55,0.00,,,0.01,meteohub,2013-11-08 21:56:00,
2013-11-08 16:57:00,46.4,31.1,30.13,West,267,6.0,15.0,55,0.00,,,0.01,meteohub,2013-11-08 21:57:00,
2013-11-08 16:59:00,46.2,30.9,30.13,WNW,293,5.0,15.0,55,0.00,,,0.01,meteohub,2013-11-08 21:59:00,
2013-11-08 17:00:00,46.2,31.5,30.13,WNW,290,8.0,15.0,56,0.00,,,0.01,meteohub,2013-11-08 22:00:00,
2013-11-08 17:01:00,46.2,31.5,30.12,NW,314,5.0,15.0,56,0.00,,,0.01,meteohub,2013-11-08 22:01:00,
2013-11-08 17:02:00,46.2,31.5,30.12,WNW,296,8.0,15.0,56,0.00,,,0.01,meteohub,2013-11-08 22:02:00,
2013-11-08 17:04:00,46.0,31.6,30.13,West,273,3.0,15.0,57,0.00,,,0.01,meteohub,2013-11-08 22:04:00,
2013-11-08 17:05:00,46.0,31.6,30.13,West,277,3.0,15.0,57,0.00,,,0.01,meteohub,2013-11-08 22:05:00,
2013-11-08 17:06:00,46.0,31.6,30.13,West,267,3.0,15.0,57,0.00,,,0.01,meteohub,2013-11-08 22:06:00,
2013-11-08 17:07:00,46.0,31.6,30.13,West,271,6.0,15.0,57,0.00,,,0.01,meteohub,2013-11-08 22:07:00,
2013-11-08 17:10:00,45.9,32.0,30.13,West,280,3.0,11.0,58,0.00,,,0.01,meteohub,2013-11-08 22:10:00,
2013-11-08 17:11:00,45.9,32.0,30.13,West,277,3.0,11.0,58,0.00,,,0.01,meteohub,2013-11-08 22:11:00,
2013-11-08 17:12:00,45.9,32.0,30.13,West,281,7.0,11.0,58,0.00,,,0.01,meteohub,2013-11-08 22:12:00,
2013-11-08 17:15:00,45.7,31.8,30.13,WNW,287,7.0,10.0,58,0.00,,,0.01,meteohub,2013-11-08 22:15:00,
2013-11-08 17:16:00,45.7,31.8,30.13,West,277,3.0,10.0,58,0.00,,,0.01,meteohub,2013-11-08 22:16:00,
2013-11-08 17:17:00,45.7,31.8,30.13,WNW,301,3.0,10.0,58,0.00,,,0.01,meteohub,2013-11-08 22:17:00,
2013-11-08 17:20:00,45.3,31.5,30.13,West,261,9.0,9.0,58,0.00,,,0.01,meteohub,2013-11-08 22:20:00,
2013-11-08 17:21:00,45.3,31.5,30.13,WNW,286,4.0,9.0,58,0.00,,,0.01,meteohub,2013-11-08 22:21:00,
2013-11-08 17:22:00,45.3,31.5,30.13,WNW,287,8.0,9.0,58,0.00,,,0.01,meteohub,2013-11-08 22:22:00,
2013-11-08 17:23:00,45.3,31.5,30.14,WNW,298,8.0,9.0,58,0.00,,,0.01,meteohub,2013-11-08 22:23:00,
2013-11-08 17:26:00,45.3,31.8,30.14,WNW,299,4.0,11.0,59,0.00,,,0.01,meteohub,2013-11-08 22:26:00,
2013-11-08 17:27:00,45.1,31.6,30.14,West,269,2.0,11.0,59,0.00,,,0.01,meteohub,2013-11-08 22:27:00,
2013-11-08 17:29:00,45.1,31.6,30.14,WNW,290,4.0,11.0,59,0.00,,,0.01,meteohub,2013-11-08 22:29:00,
2013-11-08 17:30:00,45.1,31.6,30.14,WNW,291,3.0,11.0,59,0.00,,,0.01,meteohub,2013-11-08 22:30:00,
2013-11-08 17:32:00,45.1,32.0,30.14,West,277,2.0,11.0,60,0.00,,,0.01,meteohub,2013-11-08 22:32:00,
2013-11-08 17:33:00,45.0,32.0,30.14,West,259,6.0,11.0,60,0.00,,,0.01,meteohub,2013-11-08 22:33:00,
2013-11-08 17:34:00,45.0,32.0,30.14,WNW,291,7.0,11.0,60,0.00,,,0.01,meteohub,2013-11-08 22:34:00,
2013-11-08 17:35:00,45.0,32.0,30.14,WNW,300,8.0,11.0,60,0.00,,,0.01,meteohub,2013-11-08 22:35:00,
2013-11-08 17:37:00,45.0,32.0,30.14,WNW,297,3.0,11.0,60,0.00,,,0.01,meteohub,2013-11-08 22:37:00,
2013-11-08 17:38:00,45.0,32.0,30.14,WNW,294,4.0,11.0,60,0.00,,,0.01,meteohub,2013-11-08 22:38:00,
2013-11-08 17:40:00,45.0,32.0,30.14,West,280,8.0,11.0,60,0.00,,,0.01,meteohub,2013-11-08 22:40:00,
2013-11-08 17:41:00,45.0,32.0,30.15,West,279,3.0,12.0,60,0.00,,,0.01,meteohub,2013-11-08 22:41:00,
2013-11-08 17:42:00,44.8,31.8,30.15,West,275,6.0,12.0,60,0.00,,,0.01,meteohub,2013-11-08 22:42:00,
2013-11-08 17:43:00,44.8,31.8,30.15,West,277,4.0,12.0,60,0.00,,,0.01,meteohub,2013-11-08 22:43:00,
2013-11-08 17:45:00,44.8,31.8,30.15,West,265,6.0,12.0,60,0.00,,,0.01,meteohub,2013-11-08 22:45:00,
2013-11-08 17:46:00,44.8,31.8,30.15,West,275,4.0,12.0,60,0.00,,,0.01,meteohub,2013-11-08 22:46:00,
2013-11-08 17:47:00,44.8,32.2,30.15,West,275,8.0,12.0,61,0.00,,,0.01,meteohub,2013-11-08 22:47:00,
2013-11-08 17:48:00,44.8,32.2,30.15,WNW,303,7.0,12.0,61,0.00,,,0.01,meteohub,2013-11-08 22:48:00,
2013-11-08 17:50:00,44.6,32.0,30.15,WNW,286,4.0,10.0,61,0.00,,,0.01,meteohub,2013-11-08 22:50:00,
2013-11-08 17:51:00,44.6,32.0,30.15,WNW,284,2.0,10.0,61,0.00,,,0.01,meteohub,2013-11-08 22:51:00,
2013-11-08 17:53:00,44.6,32.0,30.15,WNW,284,4.0,10.0,61,0.00,,,0.01,meteohub,2013-11-08 22:53:00,
2013-11-08 17:55:00,44.6,32.4,30.15,West,273,2.0,10.0,62,0.00,,,0.01,meteohub,2013-11-08 22:55:00,
2013-11-08 17:56:00,44.4,32.2,30.15,West,280,6.0,10.0,62,0.00,,,0.01,meteohub,2013-11-08 22:56:00,
2013-11-08 17:58:00,44.4,32.2,30.15,West,263,3.0,10.0,62,0.00,,,0.01,meteohub,2013-11-08 22:58:00,
2013-11-08 17:59:00,44.4,32.2,30.15,WSW,254,2.0,10.0,62,0.00,,,0.01,meteohub,2013-11-08 22:59:00,
2013-11-08 18:01:00,44.4,32.2,30.15,WNW,290,4.0,11.0,62,0.00,,,0.01,meteohub,2013-11-08 23:01:00,
2013-11-08 18:02:00,44.2,32.0,30.15,West,267,1.0,11.0,62,0.00,,,0.01,meteohub,2013-11-08 23:02:00,
2013-11-08 18:03:00,44.2,32.0,30.15,WNW,290,5.0,11.0,62,0.00,,,0.01,meteohub,2013-11-08 23:03:00,
2013-11-08 18:04:00,44.2,32.0,30.16,West,279,3.0,11.0,62,0.00,,,0.01,meteohub,2013-11-08 23:04:00,
2013-11-08 18:05:00,44.2,32.0,30.16,WNW,288,4.0,11.0,62,0.00,,,0.01,meteohub,2013-11-08 23:05:00,
2013-11-08 18:06:00,44.2,32.0,30.16,West,265,4.0,11.0,62,0.00,,,0.01,meteohub,2013-11-08 23:06:00,
2013-11-08 18:07:00,44.2,32.0,30.16,West,281,7.0,11.0,62,0.00,,,0.01,meteohub,2013-11-08 23:07:00,
2013-11-08 18:08:00,44.2,32.0,30.16,West,265,2.0,11.0,62,0.00,,,0.01,meteohub,2013-11-08 23:08:00,
2013-11-08 18:09:00,44.2,32.0,30.16,West,279,2.0,11.0,62,0.00,,,0.01,meteohub,2013-11-08 23:09:00,
2013-11-08 18:10:00,44.2,32.0,30.16,West,270,3.0,11.0,62,0.00,,,0.01,meteohub,2013-11-08 23:10:00,
2013-11-08 18:11:00,44.1,31.8,30.16,West,261,9.0,11.0,62,0.00,,,0.01,meteohub,2013-11-08 23:11:00,
2013-11-08 18:13:00,44.1,31.8,30.16,WNW,303,3.0,11.0,62,0.00,,,0.01,meteohub,2013-11-08 23:13:00,
2013-11-08 18:14:00,44.1,31.8,30.16,WNW,288,5.0,11.0,62,0.00,,,0.01,meteohub,2013-11-08 23:14:00,
2013-11-08 18:15:00,44.1,31.8,30.16,West,273,2.0,9.0,62,0.00,,,0.01,meteohub,2013-11-08 23:15:00,
2013-11-08 18:16:00,44.1,31.8,30.16,West,259,6.0,9.0,62,0.00,,,0.01,meteohub,2013-11-08 23:16:00,
2013-11-08 18:18:00,44.1,31.8,30.17,West,272,2.0,9.0,62,0.00,,,0.01,meteohub,2013-11-08 23:18:00,
2013-11-08 18:19:00,44.1,31.8,30.16,West,274,3.0,9.0,62,0.00,,,0.01,meteohub,2013-11-08 23:19:00,
2013-11-08 18:20:00,44.1,31.8,30.16,WNW,292,8.0,10.0,62,0.00,,,0.01,meteohub,2013-11-08 23:20:00,
2013-11-08 18:21:00,44.1,31.8,30.17,NNW,330,5.0,10.0,62,0.00,,,0.01,meteohub,2013-11-08 23:21:00,
2013-11-08 18:24:00,44.1,31.8,30.16,WNW,284,3.0,10.0,62,0.00,,,0.01,meteohub,2013-11-08 23:24:00,
2013-11-08 18:26:00,44.1,31.8,30.17,West,260,2.0,10.0,62,0.00,,,0.01,meteohub,2013-11-08 23:26:00,
2013-11-08 18:27:00,43.9,32.2,30.17,West,265,6.0,10.0,63,0.00,,,0.01,meteohub,2013-11-08 23:27:00,
2013-11-08 18:29:00,43.9,32.2,30.17,WNW,294,5.0,10.0,63,0.00,,,0.01,meteohub,2013-11-08 23:29:00,
2013-11-08 18:30:00,43.9,32.2,30.17,WNW,301,5.0,10.0,63,0.00,,,0.01,meteohub,2013-11-08 23:30:00,
2013-11-08 18:31:00,43.9,32.2,30.17,WNW,294,5.0,10.0,63,0.00,,,0.01,meteohub,2013-11-08 23:31:00,
2013-11-08 18:32:00,43.7,32.0,30.17,West,281,2.0,10.0,63,0.00,,,0.01,meteohub,2013-11-08 23:32:00,
2013-11-08 18:34:00,43.7,32.0,30.17,WNW,292,4.0,10.0,63,0.00,,,0.01,meteohub,2013-11-08 23:34:00,
2013-11-08 18:35:00,43.5,31.8,30.17,West,278,3.0,10.0,63,0.00,,,0.01,meteohub,2013-11-08 23:35:00,
2013-11-08 18:37:00,43.5,31.8,30.17,WNW,296,7.0,10.0,63,0.00,,,0.01,meteohub,2013-11-08 23:37:00,
2013-11-08 18:39:00,43.5,32.2,30.17,West,278,6.0,10.0,64,0.00,,,0.01,meteohub,2013-11-08 23:39:00,
2013-11-08 18:40:00,43.5,32.2,30.17,West,275,4.0,10.0,64,0.00,,,0.01,meteohub,2013-11-08 23:40:00,
2013-11-08 18:42:00,43.3,31.6,30.17,SW,236,2.0,10.0,63,0.00,,,0.01,meteohub,2013-11-08 23:42:00,
2013-11-08 18:44:00,43.3,32.0,30.17,WNW,288,2.0,10.0,64,0.00,,,0.01,meteohub,2013-11-08 23:44:00,
2013-11-08 18:45:00,43.3,32.0,30.17,West,278,2.0,10.0,64,0.00,,,0.01,meteohub,2013-11-08 23:45:00,
2013-11-08 18:46:00,43.3,32.0,30.17,WNW,284,6.0,10.0,64,0.00,,,0.01,meteohub,2013-11-08 23:46:00,
2013-11-08 18:47:00,43.3,32.0,30.17,WNW,294,7.0,10.0,64,0.00,,,0.01,meteohub,2013-11-08 23:47:00,
2013-11-08 18:49:00,43.2,31.8,30.18,WNW,299,3.0,10.0,64,0.00,,,0.01,meteohub,2013-11-08 23:49:00,
2013-11-08 18:50:00,43.2,31.8,30.18,West,265,4.0,10.0,64,0.00,,,0.01,meteohub,2013-11-08 23:50:00,
2013-11-08 18:51:00,43.0,31.6,30.18,WNW,288,7.0,10.0,64,0.00,,,0.01,meteohub,2013-11-08 23:51:00,
2013-11-08 18:52:00,43.0,31.6,30.18,WNW,302,5.0,10.0,64,0.00,,,0.01,meteohub,2013-11-08 23:52:00,
2013-11-08 18:53:00,42.8,31.8,30.18,WNW,290,1.0,10.0,65,0.00,,,0.01,meteohub,2013-11-08 23:53:00,
2013-11-08 18:55:00,42.6,31.6,30.18,West,273,6.0,10.0,65,0.00,,,0.01,meteohub,2013-11-08 23:55:00,
2013-11-08 18:56:00,42.6,31.6,30.18,WNW,295,4.0,10.0,65,0.00,,,0.01,meteohub,2013-11-08 23:56:00,
2013-11-08 18:58:00,42.6,32.0,30.18,WNW,298,2.0,10.0,66,0.00,,,0.01,meteohub,2013-11-08 23:58:00,
2013-11-08 18:59:00,42.6,32.0,30.18,WNW,286,3.0,10.0,66,0.00,,,0.01,meteohub,2013-11-08 23:59:00,
2013-11-08 19:00:00,42.6,32.0,30.18,West,279,4.0,10.0,66,0.00,,,0.01,meteohub,2013-11-09 00:00:00,
2013-11-08 19:01:00,42.4,32.2,30.18,WSW,257,8.0,10.0,67,0.00,,,0.01,meteohub,2013-11-09 00:01:00,
2013-11-08 19:03:00,42.4,32.2,30.18,WNW,284,6.0,10.0,67,0.00,,,0.01,meteohub,2013-11-09 00:03:00,
2013-11-08 19:04:00,42.4,32.2,30.18,West,271,8.0,10.0,67,0.00,,,0.01,meteohub,2013-11-09 00:04:00,
2013-11-08 19:05:00,42.4,32.2,30.18,WNW,286,8.0,12.0,67,0.00,,,0.01,meteohub,2013-11-09 00:05:00,
2013-11-08 19:06:00,42.4,32.2,30.18,West,279,8.0,12.0,67,0.00,,,0.01,meteohub,2013-11-09 00:06:00,
2013-11-08 19:08:00,42.4,31.8,30.18,WNW,286,7.0,12.0,66,0.00,,,0.01,meteohub,2013-11-09 00:08:00,
2013-11-08 19:09:00,42.3,31.6,30.18,WNW,298,8.0,12.0,66,0.00,,,0.01,meteohub,2013-11-09 00:09:00,
2013-11-08 19:10:00,42.3,32.2,30.19,WNW,290,4.0,12.0,67,0.00,,,0.01,meteohub,2013-11-09 00:10:00,
2013-11-08 19:11:00,42.3,32.2,30.19,WNW,294,3.0,12.0,67,0.00,,,0.01,meteohub,2013-11-09 00:11:00,
2013-11-08 19:13:00,42.1,32.0,30.19,WNW,290,5.0,12.0,67,0.00,,,0.01,meteohub,2013-11-09 00:13:00,
2013-11-08 19:14:00,42.1,32.0,30.19,WNW,290,5.0,12.0,67,0.00,,,0.01,meteohub,2013-11-09 00:14:00,
2013-11-08 19:15:00,41.9,31.8,30.19,WNW,294,7.0,11.0,67,0.00,,,0.01,meteohub,2013-11-09 00:15:00,
2013-11-08 19:16:00,41.9,31.8,30.19,WNW,300,7.0,11.0,67,0.00,,,0.01,meteohub,2013-11-09 00:16:00,
2013-11-08 19:17:00,41.7,31.6,30.19,WNW,284,3.0,11.0,67,0.00,,,0.01,meteohub,2013-11-09 00:17:00,
2013-11-08 19:19:00,41.5,31.5,30.19,West,281,3.0,11.0,67,0.00,,,0.01,meteohub,2013-11-09 00:19:00,
2013-11-08 19:20:00,41.5,31.5,30.18,WNW,288,1.0,11.0,67,0.00,,,0.01,meteohub,2013-11-09 00:20:00,
2013-11-08 19:21:00,41.5,31.5,30.18,WNW,286,3.0,11.0,67,0.00,,,0.01,meteohub,2013-11-09 00:21:00,
2013-11-08 19:22:00,41.5,31.5,30.19,West,274,3.0,11.0,67,0.00,,,0.01,meteohub,2013-11-09 00:22:00,
2013-11-08 19:24:00,41.4,31.6,30.19,WNW,284,3.0,11.0,68,0.00,,,0.01,meteohub,2013-11-09 00:24:00,
2013-11-08 19:25:00,41.4,31.6,30.19,WNW,293,2.0,11.0,68,0.00,,,0.01,meteohub,2013-11-09 00:25:00,
2013-11-08 19:26:00,41.4,31.6,30.19,WNW,292,1.0,11.0,68,0.00,,,0.01,meteohub,2013-11-09 00:26:00,
2013-11-08 19:27:00,41.4,31.6,30.19,NW,317,2.0,11.0,68,0.00,,,0.01,meteohub,2013-11-09 00:27:00,
2013-11-08 19:28:00,41.4,31.6,30.19,WNW,294,4.0,11.0,68,0.00,,,0.01,meteohub,2013-11-09 00:28:00,
2013-11-08 19:29:00,41.4,31.6,30.19,NW,305,4.0,11.0,68,0.00,,,0.01,meteohub,2013-11-09 00:29:00,
2013-11-08 19:31:00,41.2,31.5,30.19,WNW,292,3.0,9.0,68,0.00,,,0.01,meteohub,2013-11-09 00:31:00,
2013-11-08 19:32:00,41.2,31.5,30.19,WNW,298,4.0,9.0,68,0.00,,,0.01,meteohub,2013-11-09 00:32:00,
2013-11-08 19:33:00,41.2,31.5,30.19,WNW,284,4.0,9.0,68,0.00,,,0.01,meteohub,2013-11-09 00:33:00,
2013-11-08 19:35:00,41.2,31.5,30.19,WNW,288,5.0,9.0,68,0.00,,,0.01,meteohub,2013-11-09 00:35:00,
2013-11-08 19:37:00,41.2,31.8,30.19,West,278,4.0,9.0,69,0.00,,,0.01,meteohub,2013-11-09 00:37:00,
2013-11-08 19:38:00,41.2,31.8,30.19,WNW,286,1.0,9.0,69,0.00,,,0.01,meteohub,2013-11-09 00:38:00,
2013-11-08 19:41:00,41.0,31.6,30.19,West,275,3.0,9.0,69,0.00,,,0.01,meteohub,2013-11-09 00:41:00,
2013-11-08 19:42:00,41.0,31.6,30.19,West,281,8.0,9.0,69,0.00,,,0.01,meteohub,2013-11-09 00:42:00,
2013-11-08 19:43:00,41.0,31.6,30.19,WNW,285,3.0,9.0,69,0.00,,,0.01,meteohub,2013-11-09 00:43:00,
2013-11-08 19:44:00,41.0,31.6,30.19,WNW,289,4.0,9.0,69,0.00,,,0.01,meteohub,2013-11-09 00:44:00,
2013-11-08 19:46:00,41.0,31.6,30.19,West,280,3.0,9.0,69,0.00,,,0.01,meteohub,2013-11-09 00:46:00,
2013-11-08 19:47:00,40.8,31.5,30.19,WNW,294,5.0,9.0,69,0.00,,,0.01,meteohub,2013-11-09 00:47:00,
2013-11-08 19:49:00,40.8,31.5,30.19,WNW,291,7.0,9.0,69,0.00,,,0.01,meteohub,2013-11-09 00:49:00,
2013-11-08 19:51:00,40.8,31.5,30.19,West,269,6.0,9.0,69,0.00,,,0.01,meteohub,2013-11-09 00:51:00,
2013-11-08 19:52:00,40.8,31.5,30.19,WNW,288,4.0,9.0,69,0.00,,,0.01,meteohub,2013-11-09 00:52:00,
2013-11-08 19:54:00,40.8,31.5,30.19,WSW,257,5.0,9.0,69,0.00,,,0.01,meteohub,2013-11-09 00:54:00,
2013-11-08 19:55:00,40.8,31.5,30.19,WNW,285,3.0,9.0,69,0.00,,,0.01,meteohub,2013-11-09 00:55:00,
2013-11-08 19:57:00,40.8,31.5,30.20,WNW,283,2.0,9.0,69,0.00,,,0.01,meteohub,2013-11-09 00:57:00,
2013-11-08 19:59:00,40.8,31.5,30.20,West,270,6.0,9.0,69,0.00,,,0.01,meteohub,2013-11-09 00:59:00,
2013-11-08 20:00:00,40.6,31.6,30.20,WNW,291,10.0,10.0,70,0.00,,,0.01,meteohub,2013-11-09 01:00:00,
2013-11-08 20:03:00,40.6,31.6,30.20,WNW,291,3.0,9.0,70,0.00,,,0.01,meteohub,2013-11-09 01:03:00,
2013-11-08 20:04:00,40.6,31.6,30.20,WNW,300,3.0,9.0,70,0.00,,,0.01,meteohub,2013-11-09 01:04:00,
2013-11-08 20:05:00,40.6,31.6,30.20,West,270,4.0,9.0,70,0.00,,,0.01,meteohub,2013-11-09 01:05:00,
2013-11-08 20:06:00,40.6,32.0,30.20,WNW,290,5.0,10.0,71,0.00,,,0.01,meteohub,2013-11-09 01:06:00,
2013-11-08 20:09:00,40.6,32.0,30.20,West,267,7.0,10.0,71,0.00,,,0.01,meteohub,2013-11-09 01:09:00,
2013-11-08 20:10:00,40.6,32.0,30.20,WSW,256,1.0,10.0,71,0.00,,,0.01,meteohub,2013-11-09 01:10:00,
2013-11-08 20:11:00,40.6,32.0,30.20,WNW,296,4.0,10.0,71,0.00,,,0.01,meteohub,2013-11-09 01:11:00,
2013-11-08 20:14:00,40.6,32.0,30.21,WSW,248,3.0,10.0,71,0.00,,,0.01,meteohub,2013-11-09 01:14:00,
2013-11-08 20:16:00,40.6,32.0,30.21,West,281,8.0,11.0,71,0.00,,,0.01,meteohub,2013-11-09 01:16:00,
2013-11-08 20:20:00,40.6,32.0,30.21,WNW,289,2.0,11.0,71,0.00,,,0.01,meteohub,2013-11-09 01:20:00,
2013-11-08 20:21:00,40.6,32.0,30.21,WSW,255,3.0,11.0,71,0.00,,,0.01,meteohub,2013-11-09 01:21:00,
2013-11-08 20:22:00,40.6,32.0,30.21,WNW,287,3.0,11.0,71,0.00,,,0.01,meteohub,2013-11-09 01:22:00,
2013-11-08 20:26:00,40.8,32.2,30.21,WNW,289,2.0,10.0,71,0.00,,,0.01,meteohub,2013-11-09 01:26:00,
2013-11-08 20:27:00,40.8,32.2,30.21,WNW,287,3.0,10.0,71,0.00,,,0.01,meteohub,2013-11-09 01:27:00,
2013-11-08 20:29:00,40.8,32.2,30.21,West,269,8.0,10.0,71,0.00,,,0.01,meteohub,2013-11-09 01:29:00,
2013-11-08 20:32:00,40.8,32.2,30.21,WNW,291,5.0,11.0,71,0.00,,,0.01,meteohub,2013-11-09 01:32:00,
2013-11-08 20:35:00,40.8,32.2,30.21,West,281,7.0,11.0,71,0.00,,,0.01,meteohub,2013-11-09 01:35:00,
2013-11-08 20:37:00,40.8,32.2,30.21,West,279,6.0,11.0,71,0.00,,,0.01,meteohub,2013-11-09 01:37:00,
2013-11-08 20:38:00,40.8,32.2,30.21,WNW,294,10.0,11.0,71,0.00,,,0.01,meteohub,2013-11-09 01:38:00,
2013-11-08 20:42:00,40.6,32.0,30.21,NW,304,4.0,11.0,71,0.00,,,0.01,meteohub,2013-11-09 01:42:00,
2013-11-08 20:43:00,40.6,32.0,30.21,West,273,8.0,11.0,71,0.00,,,0.01,meteohub,2013-11-09 01:43:00,
2013-11-08 20:44:00,40.6,32.0,30.21,WNW,286,3.0,11.0,71,0.00,,,0.01,meteohub,2013-11-09 01:44:00,
2013-11-08 20:47:00,40.5,31.8,30.22,WNW,285,4.0,11.0,71,0.00,,,0.01,meteohub,2013-11-09 01:47:00,
2013-11-08 20:48:00,40.5,31.8,30.22,WSW,252,3.0,11.0,71,0.00,,,0.01,meteohub,2013-11-09 01:48:00,
2013-11-08 20:49:00,40.5,31.8,30.22,West,276,7.0,11.0,71,0.00,,,0.01,meteohub,2013-11-09 01:49:00,
2013-11-08 20:53:00,40.5,31.8,30.22,WNW,289,8.0,11.0,71,0.00,,,0.01,meteohub,2013-11-09 01:53:00,
2013-11-08 20:54:00,40.5,31.8,30.22,WSW,252,2.0,11.0,71,0.00,,,0.01,meteohub,2013-11-09 01:54:00,
2013-11-08 20:55:00,40.5,31.8,30.22,WSW,257,2.0,11.0,71,0.00,,,0.01,meteohub,2013-11-09 01:55:00,
2013-11-08 20:58:00,40.3,31.6,30.22,NW,306,7.0,10.0,71,0.00,,,0.01,meteohub,2013-11-09 01:58:00,
2013-11-08 20:59:00,40.3,32.0,30.22,West,275,7.0,10.0,72,0.00,,,0.01,meteohub,2013-11-09 01:59:00,
2013-11-08 21:00:00,40.3,32.0,30.22,WNW,289,4.0,10.0,72,0.00,,,0.01,meteohub,2013-11-09 02:00:00,
2013-11-08 21:01:00,40.3,32.0,30.22,West,268,4.0,10.0,72,0.00,,,0.01,meteohub,2013-11-09 02:01:00,
2013-11-08 21:03:00,40.3,32.4,30.22,WNW,299,4.0,10.0,73,0.00,,,0.01,meteohub,2013-11-09 02:03:00,
2013-11-08 21:04:00,40.3,32.0,30.22,West,260,3.0,10.0,72,0.00,,,0.01,meteohub,2013-11-09 02:04:00,
2013-11-08 21:05:00,40.3,32.4,30.22,WNW,293,4.0,13.0,73,0.00,,,0.01,meteohub,2013-11-09 02:05:00,
2013-11-08 21:06:00,40.3,32.4,30.22,NW,305,4.0,13.0,73,0.00,,,0.01,meteohub,2013-11-09 02:06:00,
2013-11-08 21:09:00,39.9,32.0,30.22,West,277,8.0,13.0,73,0.00,,,0.01,meteohub,2013-11-09 02:09:00,
2013-11-08 21:10:00,39.9,32.0,30.22,WNW,287,4.0,13.0,73,0.00,,,0.01,meteohub,2013-11-09 02:10:00,
2013-11-08 21:11:00,39.7,31.5,30.22,WNW,294,8.0,13.0,72,0.00,,,0.01,meteohub,2013-11-09 02:11:00,
2013-11-08 21:12:00,39.7,31.5,30.22,WNW,299,7.0,13.0,72,0.00,,,0.01,meteohub,2013-11-09 02:12:00,
2013-11-08 21:15:00,39.6,31.6,30.22,West,272,3.0,13.0,73,0.00,,,0.01,meteohub,2013-11-09 02:15:00,
2013-11-08 21:16:00,39.6,31.6,30.22,West,280,2.0,13.0,73,0.00,,,0.01,meteohub,2013-11-09 02:16:00,
2013-11-08 21:17:00,39.4,31.5,30.22,WNW,289,2.0,13.0,73,0.00,,,0.01,meteohub,2013-11-09 02:17:00,
2013-11-08 21:18:00,39.4,31.5,30.22,WSW,246,4.0,13.0,73,0.00,,,0.01,meteohub,2013-11-09 02:18:00,
2013-11-08 21:20:00,39.4,31.5,30.22,West,275,3.0,11.0,73,0.00,,,0.01,meteohub,2013-11-09 02:20:00,
2013-11-08 21:21:00,39.4,31.5,30.22,West,281,2.0,11.0,73,0.00,,,0.01,meteohub,2013-11-09 02:21:00,
2013-11-08 21:22:00,39.4,31.5,30.22,West,268,4.0,11.0,73,0.00,,,0.01,meteohub,2013-11-09 02:22:00,
2013-11-08 21:23:00,39.2,31.3,30.22,WNW,288,3.0,11.0,73,0.00,,,0.01,meteohub,2013-11-09 02:23:00,
2013-11-08 21:25:00,39.2,31.3,30.22,WNW,284,1.0,10.0,73,0.00,,,0.01,meteohub,2013-11-09 02:25:00,
2013-11-08 21:26:00,39.2,31.3,30.22,WNW,294,5.0,10.0,73,0.00,,,0.01,meteohub,2013-11-09 02:26:00,
2013-11-08 21:27:00,39.0,31.1,30.22,West,260,8.0,10.0,73,0.00,,,0.01,meteohub,2013-11-09 02:27:00,
2013-11-08 21:28:00,39.0,31.1,30.22,West,274,7.0,10.0,73,0.00,,,0.01,meteohub,2013-11-09 02:28:00,
2013-11-08 21:30:00,39.0,31.1,30.22,WNW,296,3.0,9.0,73,0.00,,,0.01,meteohub,2013-11-09 02:30:00,
2013-11-08 21:31:00,39.0,31.1,30.22,WNW,288,2.0,9.0,73,0.00,,,0.01,meteohub,2013-11-09 02:31:00,
2013-11-08 21:33:00,39.0,31.5,30.22,WNW,290,5.0,9.0,74,0.00,,,0.01,meteohub,2013-11-09 02:33:00,
2013-11-08 21:35:00,38.8,31.3,30.22,WSW,248,3.0,9.0,74,0.00,,,0.01,meteohub,2013-11-09 02:35:00,
2013-11-08 21:36:00,38.8,31.3,30.23,West,263,3.0,9.0,74,0.00,,,0.01,meteohub,2013-11-09 02:36:00,
2013-11-08 21:37:00,38.8,31.3,30.23,WSW,254,7.0,9.0,74,0.00,,,0.01,meteohub,2013-11-09 02:37:00,
2013-11-08 21:38:00,38.8,31.3,30.23,West,267,2.0,9.0,74,0.00,,,0.01,meteohub,2013-11-09 02:38:00,
2013-11-08 21:39:00,38.8,31.3,30.23,WNW,301,5.0,9.0,74,0.00,,,0.01,meteohub,2013-11-09 02:39:00,
2013-11-08 21:41:00,38.8,30.9,30.23,West,275,4.0,9.0,73,0.00,,,0.01,meteohub,2013-11-09 02:41:00,
2013-11-08 21:42:00,39.0,31.1,30.23,WNW,287,3.0,9.0,73,0.00,,,0.01,meteohub,2013-11-09 02:42:00,
2013-11-08 21:45:00,39.0,31.1,30.23,WNW,290,2.0,9.0,73,0.00,,,0.01,meteohub,2013-11-09 02:45:00,
2013-11-08 21:46:00,39.0,31.5,30.23,WNW,284,3.0,9.0,74,0.00,,,0.01,meteohub,2013-11-09 02:46:00,
2013-11-08 21:47:00,39.0,31.5,30.23,WNW,293,4.0,9.0,74,0.00,,,0.01,meteohub,2013-11-09 02:47:00,
2013-11-08 21:48:00,38.8,31.3,30.23,WNW,298,4.0,9.0,74,0.00,,,0.01,meteohub,2013-11-09 02:48:00,
2013-11-08 21:50:00,38.8,31.3,30.23,West,278,4.0,10.0,74,0.00,,,0.01,meteohub,2013-11-09 02:50:00,
2013-11-08 21:51:00,38.8,30.9,30.23,WNW,296,5.0,10.0,73,0.00,,,0.01,meteohub,2013-11-09 02:51:00,
2013-11-08 21:53:00,38.8,30.9,30.23,West,274,2.0,10.0,73,0.00,,,0.01,meteohub,2013-11-09 02:53:00,
2013-11-08 21:54:00,38.8,31.3,30.23,NW,308,3.0,10.0,74,0.00,,,0.01,meteohub,2013-11-09 02:54:00,
2013-11-08 21:56:00,38.7,31.1,30.23,West,277,6.0,10.0,74,0.00,,,0.01,meteohub,2013-11-09 02:56:00,
2013-11-08 21:57:00,38.7,31.1,30.23,West,272,8.0,10.0,74,0.00,,,0.01,meteohub,2013-11-09 02:57:00,
2013-11-08 21:58:00,38.7,31.1,30.23,WNW,286,7.0,10.0,74,0.00,,,0.01,meteohub,2013-11-09 02:58:00,
2013-11-08 21:59:00,38.7,31.1,30.23,WNW,288,4.0,10.0,74,0.00,,,0.01,meteohub,2013-11-09 02:59:00,
2013-11-08 22:01:00,38.7,31.1,30.23,West,280,7.0,10.0,74,0.00,,,0.01,meteohub,2013-11-09 03:01:00,
2013-11-08 22:02:00,38.7,31.1,30.23,West,268,8.0,10.0,74,0.00,,,0.01,meteohub,2013-11-09 03:02:00,
2013-11-08 22:03:00,38.7,31.1,30.23,WNW,284,4.0,10.0,74,0.00,,,0.01,meteohub,2013-11-09 03:03:00,
2013-11-08 22:04:00,38.7,31.1,30.23,West,276,4.0,10.0,74,0.00,,,0.01,meteohub,2013-11-09 03:04:00,
2013-11-08 22:07:00,38.7,31.1,30.23,WNW,285,6.0,10.0,74,0.00,,,0.01,meteohub,2013-11-09 03:07:00,
2013-11-08 22:08:00,38.5,30.9,30.23,WSW,257,4.0,10.0,74,0.00,,,0.01,meteohub,2013-11-09 03:08:00,
2013-11-08 22:09:00,38.5,30.9,30.23,West,276,6.0,10.0,74,0.00,,,0.01,meteohub,2013-11-09 03:09:00,
2013-11-08 22:11:00,38.5,30.9,30.23,WNW,285,3.0,10.0,74,0.00,,,0.01,meteohub,2013-11-09 03:11:00,
2013-11-08 22:12:00,38.5,30.9,30.23,West,279,4.0,10.0,74,0.00,,,0.01,meteohub,2013-11-09 03:12:00,
2013-11-08 22:13:00,38.5,30.9,30.23,WNW,288,3.0,10.0,74,0.00,,,0.01,meteohub,2013-11-09 03:13:00,
2013-11-08 22:14:00,38.5,30.9,30.23,WNW,296,5.0,10.0,74,0.00,,,0.01,meteohub,2013-11-09 03:14:00,
2013-11-08 22:17:00,38.5,30.9,30.23,WNW,290,7.0,10.0,74,0.00,,,0.01,meteohub,2013-11-09 03:17:00,
2013-11-08 22:18:00,38.5,30.9,30.23,WNW,294,5.0,10.0,74,0.00,,,0.01,meteohub,2013-11-09 03:18:00,
2013-11-08 22:19:00,38.5,30.9,30.23,WNW,293,5.0,10.0,74,0.00,,,0.01,meteohub,2013-11-09 03:19:00,
2013-11-08 22:20:00,38.5,30.9,30.23,WNW,298,8.0,9.0,74,0.00,,,0.01,meteohub,2013-11-09 03:20:00,
2013-11-08 22:23:00,38.5,30.9,30.23,WNW,292,3.0,9.0,74,0.00,,,0.01,meteohub,2013-11-09 03:23:00,
2013-11-08 22:24:00,38.5,31.3,30.23,WNW,302,3.0,9.0,75,0.00,,,0.01,meteohub,2013-11-09 03:24:00,
2013-11-08 22:25:00,38.5,31.3,30.23,WNW,296,7.0,9.0,75,0.00,,,0.01,meteohub,2013-11-09 03:25:00,
2013-11-08 22:26:00,38.5,31.3,30.23,WNW,290,4.0,9.0,75,0.00,,,0.01,meteohub,2013-11-09 03:26:00,
2013-11-08 22:28:00,38.3,31.1,30.23,WNW,287,2.0,9.0,75,0.00,,,0.01,meteohub,2013-11-09 03:28:00,
2013-11-08 22:29:00,38.3,31.1,30.23,WNW,292,3.0,9.0,75,0.00,,,0.01,meteohub,2013-11-09 03:29:00,
2013-11-08 22:30:00,38.3,31.1,30.23,WNW,292,4.0,10.0,75,0.00,,,0.01,meteohub,2013-11-09 03:30:00,
2013-11-08 22:32:00,38.1,30.9,30.23,WNW,290,4.0,10.0,75,0.00,,,0.01,meteohub,2013-11-09 03:32:00,
2013-11-08 22:33:00,38.1,30.9,30.23,West,265,8.0,10.0,75,0.00,,,0.01,meteohub,2013-11-09 03:33:00,
2013-11-08 22:35:00,38.1,30.9,30.24,WNW,290,4.0,10.0,75,0.00,,,0.01,meteohub,2013-11-09 03:35:00,
2013-11-08 22:36:00,38.1,30.9,30.24,West,279,3.0,10.0,75,0.00,,,0.01,meteohub,2013-11-09 03:36:00,
2013-11-08 22:37:00,38.1,30.9,30.24,West,281,7.0,10.0,75,0.00,,,0.01,meteohub,2013-11-09 03:37:00,
2013-11-08 22:38:00,38.3,31.1,30.24,WNW,291,4.0,10.0,75,0.00,,,0.01,meteohub,2013-11-09 03:38:00,
2013-11-08 22:39:00,38.3,31.1,30.24,WNW,290,3.0,10.0,75,0.00,,,0.01,meteohub,2013-11-09 03:39:00,
2013-11-08 22:40:00,38.3,31.5,30.24,West,259,3.0,11.0,76,0.00,,,0.01,meteohub,2013-11-09 03:40:00,
2013-11-08 22:41:00,38.5,31.6,30.24,WSW,254,3.0,11.0,76,0.00,,,0.01,meteohub,2013-11-09 03:41:00,
2013-11-08 22:42:00,38.5,31.6,30.24,WSW,257,8.0,11.0,76,0.00,,,0.01,meteohub,2013-11-09 03:42:00,
2013-11-08 22:44:00,38.5,31.6,30.24,WNW,294,9.0,11.0,76,0.00,,,0.01,meteohub,2013-11-09 03:44:00,
2013-11-08 22:45:00,38.5,31.3,30.24,West,281,4.0,11.0,75,0.00,,,0.01,meteohub,2013-11-09 03:45:00,
2013-11-08 22:47:00,38.5,31.3,30.24,West,267,8.0,11.0,75,0.00,,,0.01,meteohub,2013-11-09 03:47:00,
2013-11-08 22:49:00,38.5,31.6,30.24,WNW,293,7.0,11.0,76,0.00,,,0.01,meteohub,2013-11-09 03:49:00,
2013-11-08 22:50:00,38.5,31.3,30.24,WNW,302,3.0,11.0,75,0.00,,,0.01,meteohub,2013-11-09 03:50:00,
2013-11-08 22:51:00,38.5,31.3,30.24,WNW,293,5.0,11.0,75,0.00,,,0.01,meteohub,2013-11-09 03:51:00,
2013-11-08 22:52:00,38.7,31.5,30.24,WNW,293,4.0,11.0,75,0.00,,,0.01,meteohub,2013-11-09 03:52:00,
2013-11-08 22:53:00,38.5,31.3,30.24,WNW,294,7.0,11.0,75,0.00,,,0.01,meteohub,2013-11-09 03:53:00,
2013-11-08 22:54:00,38.5,31.3,30.24,WNW,284,6.0,11.0,75,0.00,,,0.01,meteohub,2013-11-09 03:54:00,
2013-11-08 22:55:00,38.5,31.3,30.24,WNW,295,5.0,11.0,75,0.00,,,0.01,meteohub,2013-11-09 03:55:00,
2013-11-08 22:56:00,38.5,31.3,30.24,WNW,296,4.0,11.0,75,0.00,,,0.01,meteohub,2013-11-09 03:56:00,
2013-11-08 22:58:00,38.5,31.3,30.24,West,277,3.0,11.0,75,0.00,,,0.01,meteohub,2013-11-09 03:58:00,
2013-11-08 22:59:00,38.3,31.1,30.24,WNW,296,3.0,11.0,75,0.00,,,0.01,meteohub,2013-11-09 03:59:00,
2013-11-08 23:00:00,38.3,31.1,30.24,West,275,6.0,10.0,75,0.00,,,0.01,meteohub,2013-11-09 04:00:00,
2013-11-08 23:01:00,38.1,30.9,30.24,WNW,285,8.0,10.0,75,0.00,,,0.01,meteohub,2013-11-09 04:01:00,
2013-11-08 23:03:00,38.1,30.9,30.24,WNW,289,7.0,10.0,75,0.00,,,0.01,meteohub,2013-11-09 04:03:00,
2013-11-08 23:04:00,38.1,30.9,30.24,West,279,10.0,10.0,75,0.00,,,0.01,meteohub,2013-11-09 04:04:00,
2013-11-08 23:06:00,38.1,30.9,30.24,West,269,2.0,9.0,75,0.00,,,0.01,meteohub,2013-11-09 04:06:00,
2013-11-08 23:07:00,37.9,30.7,30.24,WNW,285,7.0,9.0,75,0.00,,,0.01,meteohub,2013-11-09 04:07:00,
2013-11-08 23:08:00,37.9,31.1,30.25,WNW,292,4.0,9.0,76,0.00,,,0.01,meteohub,2013-11-09 04:08:00,
2013-11-08 23:10:00,38.1,31.3,30.25,West,264,2.0,9.0,76,0.00,,,0.01,meteohub,2013-11-09 04:10:00,
2013-11-08 23:11:00,38.1,31.3,30.25,WNW,288,4.0,12.0,76,0.00,,,0.01,meteohub,2013-11-09 04:11:00,
2013-11-08 23:12:00,38.1,31.3,30.25,West,261,2.0,12.0,76,0.00,,,0.01,meteohub,2013-11-09 04:12:00,
2013-11-08 23:13:00,38.1,31.3,30.25,West,260,3.0,12.0,76,0.00,,,0.01,meteohub,2013-11-09 04:13:00,
2013-11-08 23:14:00,38.1,31.3,30.25,WSW,257,3.0,12.0,76,0.00,,,0.01,meteohub,2013-11-09 04:14:00,
2013-11-08 23:15:00,38.1,31.3,30.25,WNW,288,2.0,12.0,76,0.00,,,0.01,meteohub,2013-11-09 04:15:00,
2013-11-08 23:16:00,38.1,31.3,30.25,West,275,10.0,12.0,76,0.00,,,0.01,meteohub,2013-11-09 04:16:00,
2013-11-08 23:18:00,38.1,31.3,30.25,NW,309,8.0,12.0,76,0.00,,,0.01,meteohub,2013-11-09 04:18:00,
2013-11-08 23:19:00,38.1,31.3,30.24,West,265,3.0,12.0,76,0.00,,,0.01,meteohub,2013-11-09 04:19:00,
2013-11-08 23:20:00,38.1,31.3,30.24,WNW,283,6.0,12.0,76,0.00,,,0.01,meteohub,2013-11-09 04:20:00,
2013-11-08 23:21:00,38.1,31.3,30.25,WNW,283,7.0,12.0,76,0.00,,,0.01,meteohub,2013-11-09 04:21:00,
2013-11-08 23:22:00,38.1,31.3,30.25,WNW,290,5.0,12.0,76,0.00,,,0.01,meteohub,2013-11-09 04:22:00,
2013-11-08 23:23:00,38.1,31.3,30.24,NW,305,3.0,12.0,76,0.00,,,0.01,meteohub,2013-11-09 04:23:00,
2013-11-08 23:24:00,37.9,31.1,30.24,WNW,286,4.0,12.0,76,0.00,,,0.01,meteohub,2013-11-09 04:24:00,
2013-11-08 23:25:00,37.9,31.1,30.25,WNW,282,3.0,11.0,76,0.00,,,0.01,meteohub,2013-11-09 04:25:00,
2013-11-08 23:26:00,37.9,31.1,30.25,WNW,296,10.0,11.0,76,0.00,,,0.01,meteohub,2013-11-09 04:26:00,
2013-11-08 23:27:00,37.9,31.1,30.24,WNW,290,5.0,11.0,76,0.00,,,0.01,meteohub,2013-11-09 04:27:00,
2013-11-08 23:29:00,37.8,30.9,30.25,NW,311,6.0,11.0,76,0.00,,,0.01,meteohub,2013-11-09 04:29:00,
2013-11-08 23:30:00,37.8,30.9,30.24,NW,315,9.0,11.0,76,0.00,,,0.01,meteohub,2013-11-09 04:30:00,
2013-11-08 23:31:00,37.8,30.9,30.25,WNW,298,7.0,13.0,76,0.00,,,0.01,meteohub,2013-11-09 04:31:00,
2013-11-08 23:32:00,37.8,30.9,30.25,WNW,297,7.0,13.0,76,0.00,,,0.01,meteohub,2013-11-09 04:32:00,
2013-11-08 23:34:00,37.8,30.9,30.25,West,266,4.0,13.0,76,0.00,,,0.01,meteohub,2013-11-09 04:34:00,
2013-11-08 23:35:00,37.8,31.3,30.25,WNW,286,3.0,13.0,77,0.00,,,0.01,meteohub,2013-11-09 04:35:00,
2013-11-08 23:36:00,37.8,31.3,30.25,West,273,8.0,13.0,77,0.00,,,0.01,meteohub,2013-11-09 04:36:00,
2013-11-08 23:37:00,37.8,31.3,30.25,WNW,284,3.0,13.0,77,0.00,,,0.01,meteohub,2013-11-09 04:37:00,
2013-11-08 23:38:00,37.8,31.3,30.25,West,281,3.0,13.0,77,0.00,,,0.01,meteohub,2013-11-09 04:38:00,
2013-11-08 23:40:00,37.8,31.3,30.25,WNW,289,7.0,13.0,77,0.00,,,0.01,meteohub,2013-11-09 04:40:00,
2013-11-08 23:41:00,37.6,31.1,30.25,West,273,7.0,13.0,77,0.00,,,0.01,meteohub,2013-11-09 04:41:00,
2013-11-08 23:42:00,37.6,30.7,30.25,West,281,6.0,13.0,76,0.00,,,0.01,meteohub,2013-11-09 04:42:00,
2013-11-08 23:43:00,37.6,30.7,30.25,WNW,285,7.0,13.0,76,0.00,,,0.01,meteohub,2013-11-09 04:43:00,
2013-11-08 23:45:00,37.6,31.1,30.25,West,280,6.0,12.0,77,0.00,,,0.01,meteohub,2013-11-09 04:45:00,
2013-11-08 23:46:00,37.6,31.1,30.25,West,279,4.0,12.0,77,0.00,,,0.01,meteohub,2013-11-09 04:46:00,
2013-11-08 23:47:00,37.6,31.1,30.25,WNW,282,7.0,12.0,77,0.00,,,0.01,meteohub,2013-11-09 04:47:00,
2013-11-08 23:48:00,37.6,31.1,30.25,West,281,2.0,12.0,77,0.00,,,0.01,meteohub,2013-11-09 04:48:00,
2013-11-08 23:51:00,37.6,31.1,30.25,WNW,287,7.0,12.0,77,0.00,,,0.01,meteohub,2013-11-09 04:51:00,
2013-11-08 23:52:00,37.6,31.1,30.25,West,271,6.0,12.0,77,0.00,,,0.01,meteohub,2013-11-09 04:52:00,
2013-11-08 23:53:00,37.6,31.1,30.25,West,271,3.0,12.0,77,0.00,,,0.01,meteohub,2013-11-09 04:53:00,
2013-11-08 23:55:00,37.6,31.1,30.25,WNW,288,8.0,11.0,77,0.00,,,0.01,meteohub,2013-11-09 04:55:00,
2013-11-08 23:56:00,37.6,31.1,30.25,West,265,4.0,11.0,77,0.00,,,0.01,meteohub,2013-11-09 04:56:00,
2013-11-08 23:57:00,37.6,31.1,30.25,WNW,287,5.0,11.0,77,0.00,,,0.01,meteohub,2013-11-09 04:57:00,
2013-11-08 23:58:00,37.8,31.3,30.25,WSW,250,3.0,11.0,77,0.00,,,0.01,meteohub,2013-11-09 04:58:00,
2013-11-08 23:59:00,37.6,31.1,30.25,WNW,291,7.0,11.0,77,0.00,,,0.01,meteohub,2013-11-09 04:59:00,